<?xml version="1.0" encoding="UTF-8" standalone="no" ?>
<gpx xmlns="http://www.topografix.com/GPX/1/1" xmlns:xsi="http://www.w3.org/2001/XMLSchema-instance" xsi:schemaLocation="http://www.topografix.com/GPX/1/1 http://www.topografix.com/GPX/1/1/gpx.xsd" version="1.1" creator="VisuGPX - https://www.visugpx.com">
  <metadata>
    <name>TETE DU CHEVAL PAR LES CHALETS D'ARDENTS</name>
    <desc><![CDATA[Départ du lac des plagnes
remonter le sentier en passant par les chalets d'ardents, arriver au col des pirons d'ardens et continuer le sentier sur la gauche dans le dévers jusqu'au col d'entre deux pertuis, et finisser sur la droite par la tete de cheval en surplombant le lac de tavaneuse
Redescendre sur vos pas en direction des chalets d'entre deux pertuis .
dans la descente apres les chalets prendre le sentier à droite dans la forêt pour rejoindre le lac des plagnes.]]></desc>
  </metadata>
  <trk>
    <name><![CDATA[TÊTE DU CHEVAL par chalet d'ardens]]></name>
    <cmt><![CDATA[15 juil. 2016 10:22:12]]></cmt>
    <trkseg>
      <trkpt lat="46.24812" lon="6.75514">
        <ele>1199</ele>
        <time>2016-07-15T08:22:21Z</time>
      </trkpt>
      <trkpt lat="46.24807" lon="6.75515">
        <ele>1197</ele>
        <time>2016-07-15T08:24:15Z</time>
      </trkpt>
      <trkpt lat="46.24806" lon="6.75502">
        <ele>1197</ele>
        <time>2016-07-15T08:24:24Z</time>
      </trkpt>
      <trkpt lat="46.24809" lon="6.75496">
        <ele>1197</ele>
        <time>2016-07-15T08:24:29Z</time>
      </trkpt>
      <trkpt lat="46.24807" lon="6.75499">
        <ele>1195</ele>
        <time>2016-07-15T08:25:38Z</time>
      </trkpt>
      <trkpt lat="46.24803" lon="6.75502">
        <ele>1195</ele>
        <time>2016-07-15T08:25:42Z</time>
      </trkpt>
      <trkpt lat="46.24774" lon="6.75505">
        <ele>1199</ele>
        <time>2016-07-15T08:26:14Z</time>
      </trkpt>
      <trkpt lat="46.2477" lon="6.75509">
        <ele>1200</ele>
        <time>2016-07-15T08:26:18Z</time>
      </trkpt>
      <trkpt lat="46.24747" lon="6.75522">
        <ele>1203</ele>
        <time>2016-07-15T08:26:43Z</time>
      </trkpt>
      <trkpt lat="46.24747" lon="6.75525">
        <ele>1203</ele>
        <time>2016-07-15T08:26:49Z</time>
      </trkpt>
      <trkpt lat="46.24742" lon="6.75524">
        <ele>1203</ele>
        <time>2016-07-15T08:26:56Z</time>
      </trkpt>
      <trkpt lat="46.24727" lon="6.7553">
        <ele>1204</ele>
        <time>2016-07-15T08:27:10Z</time>
      </trkpt>
      <trkpt lat="46.24702" lon="6.75528">
        <ele>1204</ele>
        <time>2016-07-15T08:27:35Z</time>
      </trkpt>
      <trkpt lat="46.24692" lon="6.7553">
        <ele>1205</ele>
        <time>2016-07-15T08:27:46Z</time>
      </trkpt>
      <trkpt lat="46.24674" lon="6.75541">
        <ele>1208</ele>
        <time>2016-07-15T08:28:20Z</time>
      </trkpt>
      <trkpt lat="46.24647" lon="6.75565">
        <ele>1212</ele>
        <time>2016-07-15T08:28:54Z</time>
      </trkpt>
      <trkpt lat="46.24642" lon="6.75565">
        <ele>1213</ele>
        <time>2016-07-15T08:29:00Z</time>
      </trkpt>
      <trkpt lat="46.24637" lon="6.75563">
        <ele>1213</ele>
        <time>2016-07-15T08:29:04Z</time>
      </trkpt>
      <trkpt lat="46.24617" lon="6.75569">
        <ele>1215</ele>
        <time>2016-07-15T08:29:24Z</time>
      </trkpt>
      <trkpt lat="46.24613" lon="6.75572">
        <ele>1216</ele>
        <time>2016-07-15T08:29:32Z</time>
      </trkpt>
      <trkpt lat="46.24608" lon="6.75571">
        <ele>1217</ele>
        <time>2016-07-15T08:29:38Z</time>
      </trkpt>
      <trkpt lat="46.24605" lon="6.75575">
        <ele>1218</ele>
        <time>2016-07-15T08:29:45Z</time>
      </trkpt>
      <trkpt lat="46.24586" lon="6.75576">
        <ele>1222</ele>
        <time>2016-07-15T08:30:11Z</time>
      </trkpt>
      <trkpt lat="46.24576" lon="6.75574">
        <ele>1223</ele>
        <time>2016-07-15T08:30:23Z</time>
      </trkpt>
      <trkpt lat="46.24572" lon="6.75576">
        <ele>1223</ele>
        <time>2016-07-15T08:30:28Z</time>
      </trkpt>
      <trkpt lat="46.24567" lon="6.75574">
        <ele>1223</ele>
        <time>2016-07-15T08:30:34Z</time>
      </trkpt>
      <trkpt lat="46.24552" lon="6.7557">
        <ele>1224</ele>
        <time>2016-07-15T08:30:51Z</time>
      </trkpt>
      <trkpt lat="46.24543" lon="6.75569">
        <ele>1227</ele>
        <time>2016-07-15T08:31:02Z</time>
      </trkpt>
      <trkpt lat="46.24533" lon="6.75568">
        <ele>1227</ele>
        <time>2016-07-15T08:31:15Z</time>
      </trkpt>
      <trkpt lat="46.24529" lon="6.75571">
        <ele>1228</ele>
        <time>2016-07-15T08:31:21Z</time>
      </trkpt>
      <trkpt lat="46.24524" lon="6.75572">
        <ele>1229</ele>
        <time>2016-07-15T08:31:29Z</time>
      </trkpt>
      <trkpt lat="46.2452" lon="6.7557">
        <ele>1230</ele>
        <time>2016-07-15T08:31:35Z</time>
      </trkpt>
      <trkpt lat="46.24496" lon="6.75558">
        <ele>1231</ele>
        <time>2016-07-15T08:32:01Z</time>
      </trkpt>
      <trkpt lat="46.24489" lon="6.75559">
        <ele>1234</ele>
        <time>2016-07-15T08:32:13Z</time>
      </trkpt>
      <trkpt lat="46.24479" lon="6.75555">
        <ele>1234</ele>
        <time>2016-07-15T08:32:23Z</time>
      </trkpt>
      <trkpt lat="46.24446" lon="6.75543">
        <ele>1235</ele>
        <time>2016-07-15T08:32:58Z</time>
      </trkpt>
      <trkpt lat="46.24441" lon="6.7554">
        <ele>1234</ele>
        <time>2016-07-15T08:33:04Z</time>
      </trkpt>
      <trkpt lat="46.24424" lon="6.75527">
        <ele>1238</ele>
        <time>2016-07-15T08:33:31Z</time>
      </trkpt>
      <trkpt lat="46.24415" lon="6.75519">
        <ele>1239</ele>
        <time>2016-07-15T08:33:40Z</time>
      </trkpt>
      <trkpt lat="46.24409" lon="6.75508">
        <ele>1240</ele>
        <time>2016-07-15T08:33:50Z</time>
      </trkpt>
      <trkpt lat="46.24405" lon="6.75497">
        <ele>1240</ele>
        <time>2016-07-15T08:34:02Z</time>
      </trkpt>
      <trkpt lat="46.24402" lon="6.75484">
        <ele>1241</ele>
        <time>2016-07-15T08:34:14Z</time>
      </trkpt>
      <trkpt lat="46.24403" lon="6.7547">
        <ele>1243</ele>
        <time>2016-07-15T08:34:25Z</time>
      </trkpt>
      <trkpt lat="46.24394" lon="6.75467">
        <ele>1248</ele>
        <time>2016-07-15T08:34:37Z</time>
      </trkpt>
      <trkpt lat="46.2438" lon="6.75473">
        <ele>1251</ele>
        <time>2016-07-15T08:34:52Z</time>
      </trkpt>
      <trkpt lat="46.24377" lon="6.75479">
        <ele>1251</ele>
        <time>2016-07-15T08:34:57Z</time>
      </trkpt>
      <trkpt lat="46.24373" lon="6.75479">
        <ele>1250</ele>
        <time>2016-07-15T08:35:02Z</time>
      </trkpt>
      <trkpt lat="46.24368" lon="6.75482">
        <ele>1250</ele>
        <time>2016-07-15T08:35:07Z</time>
      </trkpt>
      <trkpt lat="46.24339" lon="6.75472">
        <ele>1251</ele>
        <time>2016-07-15T08:35:32Z</time>
      </trkpt>
      <trkpt lat="46.24335" lon="6.75469">
        <ele>1251</ele>
        <time>2016-07-15T08:35:37Z</time>
      </trkpt>
      <trkpt lat="46.24319" lon="6.7544">
        <ele>1250</ele>
        <time>2016-07-15T08:36:03Z</time>
      </trkpt>
      <trkpt lat="46.24304" lon="6.75425">
        <ele>1251</ele>
        <time>2016-07-15T08:36:23Z</time>
      </trkpt>
      <trkpt lat="46.24279" lon="6.75384">
        <ele>1249</ele>
        <time>2016-07-15T08:36:59Z</time>
      </trkpt>
      <trkpt lat="46.24272" lon="6.75374">
        <ele>1249</ele>
        <time>2016-07-15T08:37:08Z</time>
      </trkpt>
      <trkpt lat="46.24273" lon="6.75369">
        <ele>1250</ele>
        <time>2016-07-15T08:37:16Z</time>
      </trkpt>
      <trkpt lat="46.24277" lon="6.75372">
        <ele>1251</ele>
        <time>2016-07-15T08:37:21Z</time>
      </trkpt>
      <trkpt lat="46.24282" lon="6.75368">
        <ele>1254</ele>
        <time>2016-07-15T08:37:28Z</time>
      </trkpt>
      <trkpt lat="46.2428" lon="6.75364">
        <ele>1259</ele>
        <time>2016-07-15T08:37:39Z</time>
      </trkpt>
      <trkpt lat="46.24277" lon="6.75357">
        <ele>1260</ele>
        <time>2016-07-15T08:37:48Z</time>
      </trkpt>
      <trkpt lat="46.24273" lon="6.75352">
        <ele>1261</ele>
        <time>2016-07-15T08:37:52Z</time>
      </trkpt>
      <trkpt lat="46.24264" lon="6.75345">
        <ele>1261</ele>
        <time>2016-07-15T08:38:00Z</time>
      </trkpt>
      <trkpt lat="46.24256" lon="6.75338">
        <ele>1262</ele>
        <time>2016-07-15T08:38:10Z</time>
      </trkpt>
      <trkpt lat="46.24251" lon="6.75337">
        <ele>1262</ele>
        <time>2016-07-15T08:38:15Z</time>
      </trkpt>
      <trkpt lat="46.24243" lon="6.75328">
        <ele>1263</ele>
        <time>2016-07-15T08:38:23Z</time>
      </trkpt>
      <trkpt lat="46.24242" lon="6.75321">
        <ele>1263</ele>
        <time>2016-07-15T08:38:27Z</time>
      </trkpt>
      <trkpt lat="46.24242" lon="6.75307">
        <ele>1264</ele>
        <time>2016-07-15T08:38:36Z</time>
      </trkpt>
      <trkpt lat="46.24242" lon="6.753">
        <ele>1265</ele>
        <time>2016-07-15T08:38:42Z</time>
      </trkpt>
      <trkpt lat="46.24234" lon="6.75277">
        <ele>1269</ele>
        <time>2016-07-15T08:39:00Z</time>
      </trkpt>
      <trkpt lat="46.24231" lon="6.75272">
        <ele>1269</ele>
        <time>2016-07-15T08:39:04Z</time>
      </trkpt>
      <trkpt lat="46.24228" lon="6.75269">
        <ele>1269</ele>
        <time>2016-07-15T08:39:12Z</time>
      </trkpt>
      <trkpt lat="46.24226" lon="6.75265">
        <ele>1269</ele>
        <time>2016-07-15T08:39:20Z</time>
      </trkpt>
      <trkpt lat="46.24223" lon="6.7526">
        <ele>1269</ele>
        <time>2016-07-15T08:39:28Z</time>
      </trkpt>
      <trkpt lat="46.24221" lon="6.75253">
        <ele>1269</ele>
        <time>2016-07-15T08:39:52Z</time>
      </trkpt>
      <trkpt lat="46.24212" lon="6.75243">
        <ele>1270</ele>
        <time>2016-07-15T08:40:01Z</time>
      </trkpt>
      <trkpt lat="46.24209" lon="6.75239">
        <ele>1270</ele>
        <time>2016-07-15T08:40:05Z</time>
      </trkpt>
      <trkpt lat="46.24208" lon="6.75232">
        <ele>1271</ele>
        <time>2016-07-15T08:40:09Z</time>
      </trkpt>
      <trkpt lat="46.24208" lon="6.75224">
        <ele>1271</ele>
        <time>2016-07-15T08:40:14Z</time>
      </trkpt>
      <trkpt lat="46.24206" lon="6.75218">
        <ele>1271</ele>
        <time>2016-07-15T08:40:19Z</time>
      </trkpt>
      <trkpt lat="46.24194" lon="6.7518">
        <ele>1273</ele>
        <time>2016-07-15T08:40:49Z</time>
      </trkpt>
      <trkpt lat="46.24189" lon="6.75168">
        <ele>1273</ele>
        <time>2016-07-15T08:40:57Z</time>
      </trkpt>
      <trkpt lat="46.24165" lon="6.75144">
        <ele>1271</ele>
        <time>2016-07-15T08:41:21Z</time>
      </trkpt>
      <trkpt lat="46.24165" lon="6.75136">
        <ele>1271</ele>
        <time>2016-07-15T08:41:25Z</time>
      </trkpt>
      <trkpt lat="46.24163" lon="6.75105">
        <ele>1271</ele>
        <time>2016-07-15T08:41:42Z</time>
      </trkpt>
      <trkpt lat="46.24162" lon="6.75098">
        <ele>1271</ele>
        <time>2016-07-15T08:41:48Z</time>
      </trkpt>
      <trkpt lat="46.24153" lon="6.75081">
        <ele>1272</ele>
        <time>2016-07-15T08:42:02Z</time>
      </trkpt>
      <trkpt lat="46.24141" lon="6.75028">
        <ele>1275</ele>
        <time>2016-07-15T08:42:34Z</time>
      </trkpt>
      <trkpt lat="46.24139" lon="6.75015">
        <ele>1276</ele>
        <time>2016-07-15T08:42:41Z</time>
      </trkpt>
      <trkpt lat="46.24133" lon="6.75004">
        <ele>1277</ele>
        <time>2016-07-15T08:42:48Z</time>
      </trkpt>
      <trkpt lat="46.24131" lon="6.74986">
        <ele>1277</ele>
        <time>2016-07-15T08:43:09Z</time>
      </trkpt>
      <trkpt lat="46.24112" lon="6.74935">
        <ele>1277</ele>
        <time>2016-07-15T08:43:39Z</time>
      </trkpt>
      <trkpt lat="46.24102" lon="6.74927">
        <ele>1277</ele>
        <time>2016-07-15T08:43:46Z</time>
      </trkpt>
      <trkpt lat="46.24056" lon="6.74917">
        <ele>1277</ele>
        <time>2016-07-15T08:44:24Z</time>
      </trkpt>
      <trkpt lat="46.24046" lon="6.74916">
        <ele>1277</ele>
        <time>2016-07-15T08:44:33Z</time>
      </trkpt>
      <trkpt lat="46.24039" lon="6.74922">
        <ele>1277</ele>
        <time>2016-07-15T08:45:48Z</time>
      </trkpt>
      <trkpt lat="46.24037" lon="6.74922">
        <ele>1277</ele>
        <time>2016-07-15T08:46:16Z</time>
      </trkpt>
      <trkpt lat="46.24032" lon="6.7492">
        <ele>1277</ele>
        <time>2016-07-15T08:46:21Z</time>
      </trkpt>
      <trkpt lat="46.23998" lon="6.7491">
        <ele>1279</ele>
        <time>2016-07-15T08:46:56Z</time>
      </trkpt>
      <trkpt lat="46.23988" lon="6.7491">
        <ele>1279</ele>
        <time>2016-07-15T08:47:06Z</time>
      </trkpt>
      <trkpt lat="46.23967" lon="6.74898">
        <ele>1279</ele>
        <time>2016-07-15T08:47:30Z</time>
      </trkpt>
      <trkpt lat="46.23962" lon="6.7489">
        <ele>1280</ele>
        <time>2016-07-15T08:47:48Z</time>
      </trkpt>
      <trkpt lat="46.2396" lon="6.74884">
        <ele>1287</ele>
        <time>2016-07-15T08:50:15Z</time>
      </trkpt>
      <trkpt lat="46.23955" lon="6.74879">
        <ele>1287</ele>
        <time>2016-07-15T08:50:23Z</time>
      </trkpt>
      <trkpt lat="46.23949" lon="6.74878">
        <ele>1287</ele>
        <time>2016-07-15T08:50:35Z</time>
      </trkpt>
      <trkpt lat="46.2394" lon="6.74877">
        <ele>1287</ele>
        <time>2016-07-15T08:50:43Z</time>
      </trkpt>
      <trkpt lat="46.2393" lon="6.74876">
        <ele>1288</ele>
        <time>2016-07-15T08:50:55Z</time>
      </trkpt>
      <trkpt lat="46.23921" lon="6.7488">
        <ele>1289</ele>
        <time>2016-07-15T08:51:09Z</time>
      </trkpt>
      <trkpt lat="46.23913" lon="6.74879">
        <ele>1290</ele>
        <time>2016-07-15T08:51:33Z</time>
      </trkpt>
      <trkpt lat="46.23909" lon="6.74875">
        <ele>1291</ele>
        <time>2016-07-15T08:51:38Z</time>
      </trkpt>
      <trkpt lat="46.23893" lon="6.7485">
        <ele>1296</ele>
        <time>2016-07-15T08:52:11Z</time>
      </trkpt>
      <trkpt lat="46.23876" lon="6.74836">
        <ele>1298</ele>
        <time>2016-07-15T08:52:34Z</time>
      </trkpt>
      <trkpt lat="46.23856" lon="6.74838">
        <ele>1300</ele>
        <time>2016-07-15T08:53:04Z</time>
      </trkpt>
      <trkpt lat="46.23837" lon="6.74837">
        <ele>1301</ele>
        <time>2016-07-15T08:53:31Z</time>
      </trkpt>
      <trkpt lat="46.23824" lon="6.74843">
        <ele>1304</ele>
        <time>2016-07-15T08:53:48Z</time>
      </trkpt>
      <trkpt lat="46.23823" lon="6.74846">
        <ele>1305</ele>
        <time>2016-07-15T08:53:54Z</time>
      </trkpt>
      <trkpt lat="46.23817" lon="6.74851">
        <ele>1308</ele>
        <time>2016-07-15T08:54:39Z</time>
      </trkpt>
      <trkpt lat="46.2381" lon="6.74861">
        <ele>1310</ele>
        <time>2016-07-15T08:54:52Z</time>
      </trkpt>
      <trkpt lat="46.23808" lon="6.74867">
        <ele>1311</ele>
        <time>2016-07-15T08:54:59Z</time>
      </trkpt>
      <trkpt lat="46.23803" lon="6.74869">
        <ele>1312</ele>
        <time>2016-07-15T08:55:06Z</time>
      </trkpt>
      <trkpt lat="46.23799" lon="6.74869">
        <ele>1312</ele>
        <time>2016-07-15T08:55:14Z</time>
      </trkpt>
      <trkpt lat="46.23786" lon="6.74879">
        <ele>1318</ele>
        <time>2016-07-15T08:55:44Z</time>
      </trkpt>
      <trkpt lat="46.23781" lon="6.74892">
        <ele>1320</ele>
        <time>2016-07-15T08:55:56Z</time>
      </trkpt>
      <trkpt lat="46.23777" lon="6.74895">
        <ele>1320</ele>
        <time>2016-07-15T08:56:02Z</time>
      </trkpt>
      <trkpt lat="46.23772" lon="6.74899">
        <ele>1321</ele>
        <time>2016-07-15T08:56:08Z</time>
      </trkpt>
      <trkpt lat="46.23768" lon="6.74901">
        <ele>1320</ele>
        <time>2016-07-15T08:56:13Z</time>
      </trkpt>
      <trkpt lat="46.23764" lon="6.74907">
        <ele>1321</ele>
        <time>2016-07-15T08:56:19Z</time>
      </trkpt>
      <trkpt lat="46.2376" lon="6.7491">
        <ele>1322</ele>
        <time>2016-07-15T08:56:25Z</time>
      </trkpt>
      <trkpt lat="46.23755" lon="6.74911">
        <ele>1323</ele>
        <time>2016-07-15T08:56:31Z</time>
      </trkpt>
      <trkpt lat="46.23748" lon="6.74907">
        <ele>1324</ele>
        <time>2016-07-15T08:56:43Z</time>
      </trkpt>
      <trkpt lat="46.23745" lon="6.74899">
        <ele>1326</ele>
        <time>2016-07-15T08:57:53Z</time>
      </trkpt>
      <trkpt lat="46.23741" lon="6.74893">
        <ele>1326</ele>
        <time>2016-07-15T08:57:58Z</time>
      </trkpt>
      <trkpt lat="46.23737" lon="6.74888">
        <ele>1327</ele>
        <time>2016-07-15T08:58:03Z</time>
      </trkpt>
      <trkpt lat="46.23733" lon="6.74885">
        <ele>1328</ele>
        <time>2016-07-15T08:58:08Z</time>
      </trkpt>
      <trkpt lat="46.23728" lon="6.74872">
        <ele>1328</ele>
        <time>2016-07-15T08:58:16Z</time>
      </trkpt>
      <trkpt lat="46.2373" lon="6.74857">
        <ele>1331</ele>
        <time>2016-07-15T08:58:27Z</time>
      </trkpt>
      <trkpt lat="46.23732" lon="6.74851">
        <ele>1333</ele>
        <time>2016-07-15T08:58:34Z</time>
      </trkpt>
      <trkpt lat="46.23732" lon="6.74837">
        <ele>1337</ele>
        <time>2016-07-15T08:58:46Z</time>
      </trkpt>
      <trkpt lat="46.23717" lon="6.74808">
        <ele>1340</ele>
        <time>2016-07-15T08:59:14Z</time>
      </trkpt>
      <trkpt lat="46.23697" lon="6.74799">
        <ele>1344</ele>
        <time>2016-07-15T08:59:46Z</time>
      </trkpt>
      <trkpt lat="46.23684" lon="6.74786">
        <ele>1344</ele>
        <time>2016-07-15T09:00:00Z</time>
      </trkpt>
      <trkpt lat="46.23665" lon="6.74754">
        <ele>1348</ele>
        <time>2016-07-15T09:00:33Z</time>
      </trkpt>
      <trkpt lat="46.23655" lon="6.74716">
        <ele>1352</ele>
        <time>2016-07-15T09:01:08Z</time>
      </trkpt>
      <trkpt lat="46.23651" lon="6.74705">
        <ele>1354</ele>
        <time>2016-07-15T09:01:18Z</time>
      </trkpt>
      <trkpt lat="46.23648" lon="6.74701">
        <ele>1355</ele>
        <time>2016-07-15T09:01:27Z</time>
      </trkpt>
      <trkpt lat="46.23644" lon="6.74697">
        <ele>1355</ele>
        <time>2016-07-15T09:02:28Z</time>
      </trkpt>
      <trkpt lat="46.23642" lon="6.74683">
        <ele>1356</ele>
        <time>2016-07-15T09:02:40Z</time>
      </trkpt>
      <trkpt lat="46.23633" lon="6.74643">
        <ele>1362</ele>
        <time>2016-07-15T09:03:14Z</time>
      </trkpt>
      <trkpt lat="46.2363" lon="6.74641">
        <ele>1363</ele>
        <time>2016-07-15T09:03:21Z</time>
      </trkpt>
      <trkpt lat="46.23615" lon="6.7462">
        <ele>1367</ele>
        <time>2016-07-15T09:03:54Z</time>
      </trkpt>
      <trkpt lat="46.23616" lon="6.74615">
        <ele>1368</ele>
        <time>2016-07-15T09:04:13Z</time>
      </trkpt>
      <trkpt lat="46.23614" lon="6.74613">
        <ele>1369</ele>
        <time>2016-07-15T09:04:30Z</time>
      </trkpt>
      <trkpt lat="46.23609" lon="6.74612">
        <ele>1370</ele>
        <time>2016-07-15T09:04:42Z</time>
      </trkpt>
      <trkpt lat="46.23589" lon="6.74608">
        <ele>1371</ele>
        <time>2016-07-15T09:05:06Z</time>
      </trkpt>
      <trkpt lat="46.23566" lon="6.74592">
        <ele>1377</ele>
        <time>2016-07-15T09:05:38Z</time>
      </trkpt>
      <trkpt lat="46.23546" lon="6.74586">
        <ele>1382</ele>
        <time>2016-07-15T09:06:13Z</time>
      </trkpt>
      <trkpt lat="46.23541" lon="6.74589">
        <ele>1383</ele>
        <time>2016-07-15T09:06:21Z</time>
      </trkpt>
      <trkpt lat="46.23536" lon="6.74588">
        <ele>1384</ele>
        <time>2016-07-15T09:06:28Z</time>
      </trkpt>
      <trkpt lat="46.23532" lon="6.74591">
        <ele>1385</ele>
        <time>2016-07-15T09:06:36Z</time>
      </trkpt>
      <trkpt lat="46.23527" lon="6.74591">
        <ele>1385</ele>
        <time>2016-07-15T09:06:42Z</time>
      </trkpt>
      <trkpt lat="46.23525" lon="6.74592">
        <ele>1385</ele>
        <time>2016-07-15T09:06:48Z</time>
      </trkpt>
      <trkpt lat="46.23518" lon="6.7459">
        <ele>1386</ele>
        <time>2016-07-15T09:06:58Z</time>
      </trkpt>
      <trkpt lat="46.23502" lon="6.74576">
        <ele>1391</ele>
        <time>2016-07-15T09:07:30Z</time>
      </trkpt>
      <trkpt lat="46.23488" lon="6.74556">
        <ele>1397</ele>
        <time>2016-07-15T09:08:04Z</time>
      </trkpt>
      <trkpt lat="46.2348" lon="6.74543">
        <ele>1406</ele>
        <time>2016-07-15T09:09:44Z</time>
      </trkpt>
      <trkpt lat="46.23466" lon="6.74514">
        <ele>1411</ele>
        <time>2016-07-15T09:10:16Z</time>
      </trkpt>
      <trkpt lat="46.2346" lon="6.74502">
        <ele>1413</ele>
        <time>2016-07-15T09:10:31Z</time>
      </trkpt>
      <trkpt lat="46.23456" lon="6.74497">
        <ele>1413</ele>
        <time>2016-07-15T09:10:40Z</time>
      </trkpt>
      <trkpt lat="46.23452" lon="6.74494">
        <ele>1414</ele>
        <time>2016-07-15T09:10:48Z</time>
      </trkpt>
      <trkpt lat="46.23449" lon="6.74492">
        <ele>1416</ele>
        <time>2016-07-15T09:10:57Z</time>
      </trkpt>
      <trkpt lat="46.23447" lon="6.74494">
        <ele>1417</ele>
        <time>2016-07-15T09:11:03Z</time>
      </trkpt>
      <trkpt lat="46.23442" lon="6.745">
        <ele>1420</ele>
        <time>2016-07-15T09:11:48Z</time>
      </trkpt>
      <trkpt lat="46.23438" lon="6.74503">
        <ele>1423</ele>
        <time>2016-07-15T09:11:54Z</time>
      </trkpt>
      <trkpt lat="46.23436" lon="6.74498">
        <ele>1424</ele>
        <time>2016-07-15T09:12:20Z</time>
      </trkpt>
      <trkpt lat="46.23431" lon="6.74509">
        <ele>1423</ele>
        <time>2016-07-15T09:12:44Z</time>
      </trkpt>
      <trkpt lat="46.23418" lon="6.74529">
        <ele>1429</ele>
        <time>2016-07-15T09:13:17Z</time>
      </trkpt>
      <trkpt lat="46.23414" lon="6.74555">
        <ele>1433</ele>
        <time>2016-07-15T09:13:46Z</time>
      </trkpt>
      <trkpt lat="46.2341" lon="6.74559">
        <ele>1434</ele>
        <time>2016-07-15T09:13:57Z</time>
      </trkpt>
      <trkpt lat="46.23401" lon="6.74548">
        <ele>1435</ele>
        <time>2016-07-15T09:14:20Z</time>
      </trkpt>
      <trkpt lat="46.23391" lon="6.74537">
        <ele>1443</ele>
        <time>2016-07-15T09:14:59Z</time>
      </trkpt>
      <trkpt lat="46.23389" lon="6.74524">
        <ele>1444</ele>
        <time>2016-07-15T09:15:11Z</time>
      </trkpt>
      <trkpt lat="46.23382" lon="6.74499">
        <ele>1452</ele>
        <time>2016-07-15T09:15:42Z</time>
      </trkpt>
      <trkpt lat="46.23379" lon="6.74487">
        <ele>1455</ele>
        <time>2016-07-15T09:15:55Z</time>
      </trkpt>
      <trkpt lat="46.23374" lon="6.74486">
        <ele>1455</ele>
        <time>2016-07-15T09:16:11Z</time>
      </trkpt>
      <trkpt lat="46.23368" lon="6.74502">
        <ele>1455</ele>
        <time>2016-07-15T09:16:31Z</time>
      </trkpt>
      <trkpt lat="46.23363" lon="6.74514">
        <ele>1455</ele>
        <time>2016-07-15T09:16:49Z</time>
      </trkpt>
      <trkpt lat="46.23358" lon="6.74525">
        <ele>1455</ele>
        <time>2016-07-15T09:17:02Z</time>
      </trkpt>
      <trkpt lat="46.23349" lon="6.74552">
        <ele>1459</ele>
        <time>2016-07-15T09:18:00Z</time>
      </trkpt>
      <trkpt lat="46.23344" lon="6.74546">
        <ele>1460</ele>
        <time>2016-07-15T09:18:07Z</time>
      </trkpt>
      <trkpt lat="46.23337" lon="6.74524">
        <ele>1467</ele>
        <time>2016-07-15T09:18:39Z</time>
      </trkpt>
      <trkpt lat="46.23336" lon="6.74517">
        <ele>1468</ele>
        <time>2016-07-15T09:18:46Z</time>
      </trkpt>
      <trkpt lat="46.23335" lon="6.7451">
        <ele>1468</ele>
        <time>2016-07-15T09:18:51Z</time>
      </trkpt>
      <trkpt lat="46.23325" lon="6.74479">
        <ele>1475</ele>
        <time>2016-07-15T09:19:28Z</time>
      </trkpt>
      <trkpt lat="46.23323" lon="6.74473">
        <ele>1476</ele>
        <time>2016-07-15T09:19:35Z</time>
      </trkpt>
      <trkpt lat="46.23322" lon="6.74466">
        <ele>1477</ele>
        <time>2016-07-15T09:19:42Z</time>
      </trkpt>
      <trkpt lat="46.23317" lon="6.74454">
        <ele>1479</ele>
        <time>2016-07-15T09:19:55Z</time>
      </trkpt>
      <trkpt lat="46.23315" lon="6.74452">
        <ele>1481</ele>
        <time>2016-07-15T09:20:11Z</time>
      </trkpt>
      <trkpt lat="46.2331" lon="6.74454">
        <ele>1482</ele>
        <time>2016-07-15T09:20:39Z</time>
      </trkpt>
      <trkpt lat="46.23309" lon="6.74456">
        <ele>1484</ele>
        <time>2016-07-15T09:22:12Z</time>
      </trkpt>
      <trkpt lat="46.2331" lon="6.74462">
        <ele>1485</ele>
        <time>2016-07-15T09:22:39Z</time>
      </trkpt>
      <trkpt lat="46.2331" lon="6.74475">
        <ele>1492</ele>
        <time>2016-07-15T09:22:52Z</time>
      </trkpt>
      <trkpt lat="46.23307" lon="6.7448">
        <ele>1494</ele>
        <time>2016-07-15T09:22:56Z</time>
      </trkpt>
      <trkpt lat="46.23303" lon="6.74515">
        <ele>1498</ele>
        <time>2016-07-15T09:23:20Z</time>
      </trkpt>
      <trkpt lat="46.23304" lon="6.74522">
        <ele>1498</ele>
        <time>2016-07-15T09:23:25Z</time>
      </trkpt>
      <trkpt lat="46.23297" lon="6.7454">
        <ele>1500</ele>
        <time>2016-07-15T09:23:46Z</time>
      </trkpt>
      <trkpt lat="46.23297" lon="6.74548">
        <ele>1500</ele>
        <time>2016-07-15T09:23:53Z</time>
      </trkpt>
      <trkpt lat="46.23297" lon="6.74555">
        <ele>1500</ele>
        <time>2016-07-15T09:24:01Z</time>
      </trkpt>
      <trkpt lat="46.23293" lon="6.74568">
        <ele>1500</ele>
        <time>2016-07-15T09:24:11Z</time>
      </trkpt>
      <trkpt lat="46.23292" lon="6.74588">
        <ele>1502</ele>
        <time>2016-07-15T09:24:29Z</time>
      </trkpt>
      <trkpt lat="46.23292" lon="6.74595">
        <ele>1502</ele>
        <time>2016-07-15T09:24:35Z</time>
      </trkpt>
      <trkpt lat="46.23287" lon="6.74585">
        <ele>1506</ele>
        <time>2016-07-15T09:26:35Z</time>
      </trkpt>
      <trkpt lat="46.23283" lon="6.74572">
        <ele>1506</ele>
        <time>2016-07-15T09:26:45Z</time>
      </trkpt>
      <trkpt lat="46.2327" lon="6.74537">
        <ele>1511</ele>
        <time>2016-07-15T09:27:24Z</time>
      </trkpt>
      <trkpt lat="46.23254" lon="6.74523">
        <ele>1513</ele>
        <time>2016-07-15T09:27:56Z</time>
      </trkpt>
      <trkpt lat="46.23247" lon="6.74504">
        <ele>1518</ele>
        <time>2016-07-15T09:28:27Z</time>
      </trkpt>
      <trkpt lat="46.23243" lon="6.74491">
        <ele>1519</ele>
        <time>2016-07-15T09:28:41Z</time>
      </trkpt>
      <trkpt lat="46.23235" lon="6.74469">
        <ele>1525</ele>
        <time>2016-07-15T09:30:15Z</time>
      </trkpt>
      <trkpt lat="46.23223" lon="6.74427">
        <ele>1532</ele>
        <time>2016-07-15T09:31:06Z</time>
      </trkpt>
      <trkpt lat="46.23215" lon="6.74411">
        <ele>1535</ele>
        <time>2016-07-15T09:31:44Z</time>
      </trkpt>
      <trkpt lat="46.23206" lon="6.74383">
        <ele>1542</ele>
        <time>2016-07-15T09:32:21Z</time>
      </trkpt>
      <trkpt lat="46.23206" lon="6.74377">
        <ele>1544</ele>
        <time>2016-07-15T09:32:31Z</time>
      </trkpt>
      <trkpt lat="46.23203" lon="6.74371">
        <ele>1545</ele>
        <time>2016-07-15T09:32:38Z</time>
      </trkpt>
      <trkpt lat="46.23198" lon="6.74372">
        <ele>1545</ele>
        <time>2016-07-15T09:32:44Z</time>
      </trkpt>
      <trkpt lat="46.23199" lon="6.74379">
        <ele>1546</ele>
        <time>2016-07-15T09:32:51Z</time>
      </trkpt>
      <trkpt lat="46.23193" lon="6.74391">
        <ele>1549</ele>
        <time>2016-07-15T09:33:02Z</time>
      </trkpt>
      <trkpt lat="46.23192" lon="6.74382">
        <ele>1549</ele>
        <time>2016-07-15T09:33:20Z</time>
      </trkpt>
      <trkpt lat="46.23192" lon="6.74377">
        <ele>1551</ele>
        <time>2016-07-15T09:33:29Z</time>
      </trkpt>
      <trkpt lat="46.23188" lon="6.74364">
        <ele>1552</ele>
        <time>2016-07-15T09:33:41Z</time>
      </trkpt>
      <trkpt lat="46.23187" lon="6.74358">
        <ele>1552</ele>
        <time>2016-07-15T09:33:47Z</time>
      </trkpt>
      <trkpt lat="46.23188" lon="6.74344">
        <ele>1553</ele>
        <time>2016-07-15T09:34:01Z</time>
      </trkpt>
      <trkpt lat="46.23185" lon="6.74338">
        <ele>1554</ele>
        <time>2016-07-15T09:34:09Z</time>
      </trkpt>
      <trkpt lat="46.23181" lon="6.74334">
        <ele>1555</ele>
        <time>2016-07-15T09:34:15Z</time>
      </trkpt>
      <trkpt lat="46.23178" lon="6.74338">
        <ele>1555</ele>
        <time>2016-07-15T09:34:19Z</time>
      </trkpt>
      <trkpt lat="46.23171" lon="6.74349">
        <ele>1556</ele>
        <time>2016-07-15T09:34:26Z</time>
      </trkpt>
      <trkpt lat="46.23166" lon="6.74362">
        <ele>1558</ele>
        <time>2016-07-15T09:36:38Z</time>
      </trkpt>
      <trkpt lat="46.23162" lon="6.74366">
        <ele>1560</ele>
        <time>2016-07-15T09:36:43Z</time>
      </trkpt>
      <trkpt lat="46.23161" lon="6.74373">
        <ele>1563</ele>
        <time>2016-07-15T09:36:52Z</time>
      </trkpt>
      <trkpt lat="46.23161" lon="6.74381">
        <ele>1565</ele>
        <time>2016-07-15T09:36:59Z</time>
      </trkpt>
      <trkpt lat="46.23158" lon="6.74386">
        <ele>1565</ele>
        <time>2016-07-15T09:37:07Z</time>
      </trkpt>
      <trkpt lat="46.23154" lon="6.74383">
        <ele>1567</ele>
        <time>2016-07-15T09:37:20Z</time>
      </trkpt>
      <trkpt lat="46.23153" lon="6.74377">
        <ele>1567</ele>
        <time>2016-07-15T09:37:27Z</time>
      </trkpt>
      <trkpt lat="46.23151" lon="6.74372">
        <ele>1569</ele>
        <time>2016-07-15T09:37:40Z</time>
      </trkpt>
      <trkpt lat="46.23148" lon="6.74365">
        <ele>1570</ele>
        <time>2016-07-15T09:37:47Z</time>
      </trkpt>
      <trkpt lat="46.23139" lon="6.74331">
        <ele>1577</ele>
        <time>2016-07-15T09:38:28Z</time>
      </trkpt>
      <trkpt lat="46.23138" lon="6.74324">
        <ele>1578</ele>
        <time>2016-07-15T09:38:37Z</time>
      </trkpt>
      <trkpt lat="46.23126" lon="6.74299">
        <ele>1584</ele>
        <time>2016-07-15T09:39:22Z</time>
      </trkpt>
      <trkpt lat="46.23121" lon="6.7431">
        <ele>1585</ele>
        <time>2016-07-15T09:39:34Z</time>
      </trkpt>
      <trkpt lat="46.23119" lon="6.74324">
        <ele>1587</ele>
        <time>2016-07-15T09:39:50Z</time>
      </trkpt>
      <trkpt lat="46.23117" lon="6.74326">
        <ele>1592</ele>
        <time>2016-07-15T09:41:01Z</time>
      </trkpt>
      <trkpt lat="46.23112" lon="6.74321">
        <ele>1592</ele>
        <time>2016-07-15T09:42:04Z</time>
      </trkpt>
      <trkpt lat="46.23109" lon="6.74315">
        <ele>1593</ele>
        <time>2016-07-15T09:42:10Z</time>
      </trkpt>
      <trkpt lat="46.23106" lon="6.74309">
        <ele>1593</ele>
        <time>2016-07-15T09:42:15Z</time>
      </trkpt>
      <trkpt lat="46.23096" lon="6.74295">
        <ele>1596</ele>
        <time>2016-07-15T09:42:34Z</time>
      </trkpt>
      <trkpt lat="46.23093" lon="6.74283">
        <ele>1599</ele>
        <time>2016-07-15T09:42:44Z</time>
      </trkpt>
      <trkpt lat="46.23088" lon="6.74279">
        <ele>1600</ele>
        <time>2016-07-15T09:42:54Z</time>
      </trkpt>
      <trkpt lat="46.23085" lon="6.74273">
        <ele>1601</ele>
        <time>2016-07-15T09:43:00Z</time>
      </trkpt>
      <trkpt lat="46.23086" lon="6.74268">
        <ele>1604</ele>
        <time>2016-07-15T09:43:16Z</time>
      </trkpt>
      <trkpt lat="46.23086" lon="6.74264">
        <ele>1607</ele>
        <time>2016-07-15T09:44:28Z</time>
      </trkpt>
      <trkpt lat="46.23097" lon="6.74248">
        <ele>1608</ele>
        <time>2016-07-15T09:44:49Z</time>
      </trkpt>
      <trkpt lat="46.23107" lon="6.74233">
        <ele>1611</ele>
        <time>2016-07-15T09:45:06Z</time>
      </trkpt>
      <trkpt lat="46.23105" lon="6.74226">
        <ele>1612</ele>
        <time>2016-07-15T09:45:11Z</time>
      </trkpt>
      <trkpt lat="46.23102" lon="6.74205">
        <ele>1613</ele>
        <time>2016-07-15T09:45:27Z</time>
      </trkpt>
      <trkpt lat="46.23105" lon="6.74192">
        <ele>1614</ele>
        <time>2016-07-15T09:45:39Z</time>
      </trkpt>
      <trkpt lat="46.23112" lon="6.74182">
        <ele>1615</ele>
        <time>2016-07-15T09:45:50Z</time>
      </trkpt>
      <trkpt lat="46.23112" lon="6.74175">
        <ele>1615</ele>
        <time>2016-07-15T09:45:55Z</time>
      </trkpt>
      <trkpt lat="46.23113" lon="6.74169">
        <ele>1616</ele>
        <time>2016-07-15T09:46:03Z</time>
      </trkpt>
      <trkpt lat="46.23109" lon="6.74165">
        <ele>1616</ele>
        <time>2016-07-15T09:46:08Z</time>
      </trkpt>
      <trkpt lat="46.23108" lon="6.74158">
        <ele>1617</ele>
        <time>2016-07-15T09:46:17Z</time>
      </trkpt>
      <trkpt lat="46.23104" lon="6.74154">
        <ele>1617</ele>
        <time>2016-07-15T09:46:22Z</time>
      </trkpt>
      <trkpt lat="46.23097" lon="6.74144">
        <ele>1617</ele>
        <time>2016-07-15T09:46:34Z</time>
      </trkpt>
      <trkpt lat="46.23097" lon="6.74131">
        <ele>1618</ele>
        <time>2016-07-15T09:46:48Z</time>
      </trkpt>
      <trkpt lat="46.23097" lon="6.74118">
        <ele>1622</ele>
        <time>2016-07-15T09:47:01Z</time>
      </trkpt>
      <trkpt lat="46.23099" lon="6.74104">
        <ele>1622</ele>
        <time>2016-07-15T09:47:10Z</time>
      </trkpt>
      <trkpt lat="46.23101" lon="6.74059">
        <ele>1629</ele>
        <time>2016-07-15T09:48:05Z</time>
      </trkpt>
      <trkpt lat="46.23101" lon="6.74046">
        <ele>1631</ele>
        <time>2016-07-15T09:48:20Z</time>
      </trkpt>
      <trkpt lat="46.23105" lon="6.74035">
        <ele>1632</ele>
        <time>2016-07-15T09:48:29Z</time>
      </trkpt>
      <trkpt lat="46.2311" lon="6.74026">
        <ele>1637</ele>
        <time>2016-07-15T09:48:47Z</time>
      </trkpt>
      <trkpt lat="46.23111" lon="6.74012">
        <ele>1640</ele>
        <time>2016-07-15T09:49:12Z</time>
      </trkpt>
      <trkpt lat="46.23113" lon="6.73998">
        <ele>1641</ele>
        <time>2016-07-15T09:49:22Z</time>
      </trkpt>
      <trkpt lat="46.23117" lon="6.73972">
        <ele>1641</ele>
        <time>2016-07-15T09:49:43Z</time>
      </trkpt>
      <trkpt lat="46.23121" lon="6.73959">
        <ele>1641</ele>
        <time>2016-07-15T09:50:04Z</time>
      </trkpt>
      <trkpt lat="46.23129" lon="6.7395">
        <ele>1643</ele>
        <time>2016-07-15T09:50:16Z</time>
      </trkpt>
      <trkpt lat="46.23131" lon="6.73937">
        <ele>1645</ele>
        <time>2016-07-15T09:50:28Z</time>
      </trkpt>
      <trkpt lat="46.23131" lon="6.73923">
        <ele>1647</ele>
        <time>2016-07-15T09:50:41Z</time>
      </trkpt>
      <trkpt lat="46.23133" lon="6.7391">
        <ele>1648</ele>
        <time>2016-07-15T09:50:53Z</time>
      </trkpt>
      <trkpt lat="46.23148" lon="6.73894">
        <ele>1652</ele>
        <time>2016-07-15T09:51:21Z</time>
      </trkpt>
      <trkpt lat="46.23157" lon="6.7389">
        <ele>1654</ele>
        <time>2016-07-15T09:51:31Z</time>
      </trkpt>
      <trkpt lat="46.23157" lon="6.73876">
        <ele>1656</ele>
        <time>2016-07-15T09:51:46Z</time>
      </trkpt>
      <trkpt lat="46.23174" lon="6.73841">
        <ele>1663</ele>
        <time>2016-07-15T09:52:41Z</time>
      </trkpt>
      <trkpt lat="46.23186" lon="6.73816">
        <ele>1674</ele>
        <time>2016-07-15T09:53:20Z</time>
      </trkpt>
      <trkpt lat="46.23199" lon="6.73794">
        <ele>1679</ele>
        <time>2016-07-15T09:53:52Z</time>
      </trkpt>
      <trkpt lat="46.23202" lon="6.73781">
        <ele>1680</ele>
        <time>2016-07-15T09:54:02Z</time>
      </trkpt>
      <trkpt lat="46.232" lon="6.73786">
        <ele>1684</ele>
        <time>2016-07-15T09:54:14Z</time>
      </trkpt>
      <trkpt lat="46.23218" lon="6.73772">
        <ele>1688</ele>
        <time>2016-07-15T09:54:33Z</time>
      </trkpt>
      <trkpt lat="46.23209" lon="6.73774">
        <ele>1689</ele>
        <time>2016-07-15T09:54:39Z</time>
      </trkpt>
      <trkpt lat="46.23205" lon="6.73778">
        <ele>1689</ele>
        <time>2016-07-15T09:54:55Z</time>
      </trkpt>
      <trkpt lat="46.2321" lon="6.73785">
        <ele>1696</ele>
        <time>2016-07-15T10:00:19Z</time>
      </trkpt>
      <trkpt lat="46.23216" lon="6.73795">
        <ele>1696</ele>
        <time>2016-07-15T10:00:32Z</time>
      </trkpt>
      <trkpt lat="46.23212" lon="6.73808">
        <ele>1697</ele>
        <time>2016-07-15T10:00:43Z</time>
      </trkpt>
      <trkpt lat="46.23215" lon="6.73821">
        <ele>1695</ele>
        <time>2016-07-15T10:00:57Z</time>
      </trkpt>
      <trkpt lat="46.23221" lon="6.73832">
        <ele>1694</ele>
        <time>2016-07-15T10:01:09Z</time>
      </trkpt>
      <trkpt lat="46.23229" lon="6.73828">
        <ele>1695</ele>
        <time>2016-07-15T10:01:20Z</time>
      </trkpt>
      <trkpt lat="46.23235" lon="6.73818">
        <ele>1695</ele>
        <time>2016-07-15T10:01:31Z</time>
      </trkpt>
      <trkpt lat="46.23237" lon="6.73804">
        <ele>1696</ele>
        <time>2016-07-15T10:01:42Z</time>
      </trkpt>
      <trkpt lat="46.23238" lon="6.73809">
        <ele>1699</ele>
        <time>2016-07-15T10:03:14Z</time>
      </trkpt>
      <trkpt lat="46.23242" lon="6.73836">
        <ele>1699</ele>
        <time>2016-07-15T10:03:38Z</time>
      </trkpt>
      <trkpt lat="46.23246" lon="6.73863">
        <ele>1702</ele>
        <time>2016-07-15T10:04:08Z</time>
      </trkpt>
      <trkpt lat="46.23243" lon="6.73879">
        <ele>1705</ele>
        <time>2016-07-15T10:04:24Z</time>
      </trkpt>
      <trkpt lat="46.23246" lon="6.73891">
        <ele>1707</ele>
        <time>2016-07-15T10:04:36Z</time>
      </trkpt>
      <trkpt lat="46.23244" lon="6.73905">
        <ele>1707</ele>
        <time>2016-07-15T10:04:45Z</time>
      </trkpt>
      <trkpt lat="46.23241" lon="6.73918">
        <ele>1709</ele>
        <time>2016-07-15T10:04:59Z</time>
      </trkpt>
      <trkpt lat="46.23249" lon="6.73931">
        <ele>1720</ele>
        <time>2016-07-15T10:07:29Z</time>
      </trkpt>
      <trkpt lat="46.23249" lon="6.73925">
        <ele>1721</ele>
        <time>2016-07-15T10:07:37Z</time>
      </trkpt>
      <trkpt lat="46.23248" lon="6.73918">
        <ele>1721</ele>
        <time>2016-07-15T10:07:49Z</time>
      </trkpt>
      <trkpt lat="46.23251" lon="6.73914">
        <ele>1721</ele>
        <time>2016-07-15T10:08:02Z</time>
      </trkpt>
      <trkpt lat="46.23256" lon="6.73912">
        <ele>1720</ele>
        <time>2016-07-15T10:08:10Z</time>
      </trkpt>
      <trkpt lat="46.23259" lon="6.73907">
        <ele>1721</ele>
        <time>2016-07-15T10:08:15Z</time>
      </trkpt>
      <trkpt lat="46.23267" lon="6.73897">
        <ele>1722</ele>
        <time>2016-07-15T10:08:25Z</time>
      </trkpt>
      <trkpt lat="46.23268" lon="6.7389">
        <ele>1722</ele>
        <time>2016-07-15T10:08:30Z</time>
      </trkpt>
      <trkpt lat="46.23275" lon="6.7388">
        <ele>1723</ele>
        <time>2016-07-15T10:08:50Z</time>
      </trkpt>
      <trkpt lat="46.23282" lon="6.73882">
        <ele>1723</ele>
        <time>2016-07-15T10:09:06Z</time>
      </trkpt>
      <trkpt lat="46.23304" lon="6.73872">
        <ele>1730</ele>
        <time>2016-07-15T10:09:42Z</time>
      </trkpt>
      <trkpt lat="46.23322" lon="6.73856">
        <ele>1736</ele>
        <time>2016-07-15T10:10:27Z</time>
      </trkpt>
      <trkpt lat="46.23331" lon="6.73856">
        <ele>1739</ele>
        <time>2016-07-15T10:10:39Z</time>
      </trkpt>
      <trkpt lat="46.2334" lon="6.73849">
        <ele>1743</ele>
        <time>2016-07-15T10:11:24Z</time>
      </trkpt>
      <trkpt lat="46.23344" lon="6.73849">
        <ele>1744</ele>
        <time>2016-07-15T10:13:09Z</time>
      </trkpt>
      <trkpt lat="46.23345" lon="6.73849">
        <ele>1748</ele>
        <time>2016-07-15T10:15:45Z</time>
      </trkpt>
      <trkpt lat="46.2335" lon="6.73847">
        <ele>1747</ele>
        <time>2016-07-15T10:16:14Z</time>
      </trkpt>
      <trkpt lat="46.23357" lon="6.73837">
        <ele>1746</ele>
        <time>2016-07-15T10:16:25Z</time>
      </trkpt>
      <trkpt lat="46.23361" lon="6.73833">
        <ele>1747</ele>
        <time>2016-07-15T10:16:30Z</time>
      </trkpt>
      <trkpt lat="46.23378" lon="6.73808">
        <ele>1752</ele>
        <time>2016-07-15T10:17:03Z</time>
      </trkpt>
      <trkpt lat="46.23394" lon="6.7379">
        <ele>1759</ele>
        <time>2016-07-15T10:17:36Z</time>
      </trkpt>
      <trkpt lat="46.23398" lon="6.73788">
        <ele>1760</ele>
        <time>2016-07-15T10:17:42Z</time>
      </trkpt>
      <trkpt lat="46.23406" lon="6.73781">
        <ele>1761</ele>
        <time>2016-07-15T10:17:52Z</time>
      </trkpt>
      <trkpt lat="46.2341" lon="6.73777">
        <ele>1761</ele>
        <time>2016-07-15T10:17:58Z</time>
      </trkpt>
      <trkpt lat="46.23415" lon="6.73774">
        <ele>1762</ele>
        <time>2016-07-15T10:18:15Z</time>
      </trkpt>
      <trkpt lat="46.23422" lon="6.73766">
        <ele>1763</ele>
        <time>2016-07-15T10:18:31Z</time>
      </trkpt>
      <trkpt lat="46.23427" lon="6.73754">
        <ele>1764</ele>
        <time>2016-07-15T10:18:43Z</time>
      </trkpt>
      <trkpt lat="46.2343" lon="6.73748">
        <ele>1764</ele>
        <time>2016-07-15T10:18:49Z</time>
      </trkpt>
      <trkpt lat="46.23434" lon="6.73744">
        <ele>1765</ele>
        <time>2016-07-15T10:19:53Z</time>
      </trkpt>
      <trkpt lat="46.23443" lon="6.73749">
        <ele>1767</ele>
        <time>2016-07-15T10:20:42Z</time>
      </trkpt>
      <trkpt lat="46.23453" lon="6.73749">
        <ele>1768</ele>
        <time>2016-07-15T10:20:49Z</time>
      </trkpt>
      <trkpt lat="46.23463" lon="6.73748">
        <ele>1767</ele>
        <time>2016-07-15T10:21:03Z</time>
      </trkpt>
      <trkpt lat="46.23492" lon="6.73711">
        <ele>1764</ele>
        <time>2016-07-15T10:21:40Z</time>
      </trkpt>
      <trkpt lat="46.23499" lon="6.73702">
        <ele>1764</ele>
        <time>2016-07-15T10:21:49Z</time>
      </trkpt>
      <trkpt lat="46.23507" lon="6.73696">
        <ele>1764</ele>
        <time>2016-07-15T10:22:03Z</time>
      </trkpt>
      <trkpt lat="46.23521" lon="6.73678">
        <ele>1764</ele>
        <time>2016-07-15T10:22:34Z</time>
      </trkpt>
      <trkpt lat="46.23527" lon="6.73668">
        <ele>1765</ele>
        <time>2016-07-15T10:22:47Z</time>
      </trkpt>
      <trkpt lat="46.23551" lon="6.73646">
        <ele>1768</ele>
        <time>2016-07-15T10:23:27Z</time>
      </trkpt>
      <trkpt lat="46.23558" lon="6.73637">
        <ele>1768</ele>
        <time>2016-07-15T10:23:37Z</time>
      </trkpt>
      <trkpt lat="46.23583" lon="6.73618">
        <ele>1772</ele>
        <time>2016-07-15T10:24:11Z</time>
      </trkpt>
      <trkpt lat="46.2361" lon="6.73605">
        <ele>1775</ele>
        <time>2016-07-15T10:24:45Z</time>
      </trkpt>
      <trkpt lat="46.23616" lon="6.73594">
        <ele>1776</ele>
        <time>2016-07-15T10:24:57Z</time>
      </trkpt>
      <trkpt lat="46.23623" lon="6.73584">
        <ele>1776</ele>
        <time>2016-07-15T10:25:07Z</time>
      </trkpt>
      <trkpt lat="46.23631" lon="6.73578">
        <ele>1776</ele>
        <time>2016-07-15T10:25:20Z</time>
      </trkpt>
      <trkpt lat="46.23649" lon="6.73568">
        <ele>1776</ele>
        <time>2016-07-15T10:25:50Z</time>
      </trkpt>
      <trkpt lat="46.2366" lon="6.7354">
        <ele>1781</ele>
        <time>2016-07-15T10:26:26Z</time>
      </trkpt>
      <trkpt lat="46.23663" lon="6.73537">
        <ele>1781</ele>
        <time>2016-07-15T10:26:33Z</time>
      </trkpt>
      <trkpt lat="46.23667" lon="6.73539">
        <ele>1783</ele>
        <time>2016-07-15T10:26:43Z</time>
      </trkpt>
      <trkpt lat="46.23672" lon="6.73537">
        <ele>1784</ele>
        <time>2016-07-15T10:26:48Z</time>
      </trkpt>
      <trkpt lat="46.23676" lon="6.73533">
        <ele>1785</ele>
        <time>2016-07-15T10:26:53Z</time>
      </trkpt>
      <trkpt lat="46.23684" lon="6.73525">
        <ele>1786</ele>
        <time>2016-07-15T10:27:05Z</time>
      </trkpt>
      <trkpt lat="46.23712" lon="6.73505">
        <ele>1792</ele>
        <time>2016-07-15T10:27:40Z</time>
      </trkpt>
      <trkpt lat="46.23716" lon="6.73501">
        <ele>1793</ele>
        <time>2016-07-15T10:27:46Z</time>
      </trkpt>
      <trkpt lat="46.23724" lon="6.73497">
        <ele>1794</ele>
        <time>2016-07-15T10:27:57Z</time>
      </trkpt>
      <trkpt lat="46.2373" lon="6.73486">
        <ele>1794</ele>
        <time>2016-07-15T10:28:07Z</time>
      </trkpt>
      <trkpt lat="46.2375" lon="6.73457">
        <ele>1795</ele>
        <time>2016-07-15T10:28:38Z</time>
      </trkpt>
      <trkpt lat="46.23772" lon="6.73431">
        <ele>1797</ele>
        <time>2016-07-15T10:29:13Z</time>
      </trkpt>
      <trkpt lat="46.23781" lon="6.73426">
        <ele>1798</ele>
        <time>2016-07-15T10:29:22Z</time>
      </trkpt>
      <trkpt lat="46.23785" lon="6.73422">
        <ele>1799</ele>
        <time>2016-07-15T10:31:00Z</time>
      </trkpt>
      <trkpt lat="46.23792" lon="6.73416">
        <ele>1800</ele>
        <time>2016-07-15T10:31:29Z</time>
      </trkpt>
      <trkpt lat="46.23794" lon="6.73409">
        <ele>1801</ele>
        <time>2016-07-15T10:31:34Z</time>
      </trkpt>
      <trkpt lat="46.23793" lon="6.73395">
        <ele>1802</ele>
        <time>2016-07-15T10:31:44Z</time>
      </trkpt>
      <trkpt lat="46.23797" lon="6.73382">
        <ele>1803</ele>
        <time>2016-07-15T10:31:52Z</time>
      </trkpt>
      <trkpt lat="46.23796" lon="6.73362">
        <ele>1803</ele>
        <time>2016-07-15T10:32:08Z</time>
      </trkpt>
      <trkpt lat="46.23794" lon="6.73349">
        <ele>1803</ele>
        <time>2016-07-15T10:32:18Z</time>
      </trkpt>
      <trkpt lat="46.23791" lon="6.73344">
        <ele>1803</ele>
        <time>2016-07-15T10:32:24Z</time>
      </trkpt>
      <trkpt lat="46.23788" lon="6.73339">
        <ele>1803</ele>
        <time>2016-07-15T10:32:29Z</time>
      </trkpt>
      <trkpt lat="46.23787" lon="6.73332">
        <ele>1803</ele>
        <time>2016-07-15T10:32:36Z</time>
      </trkpt>
      <trkpt lat="46.23783" lon="6.7333">
        <ele>1803</ele>
        <time>2016-07-15T10:32:46Z</time>
      </trkpt>
      <trkpt lat="46.23779" lon="6.73318">
        <ele>1804</ele>
        <time>2016-07-15T10:33:01Z</time>
      </trkpt>
      <trkpt lat="46.2376" lon="6.73302">
        <ele>1809</ele>
        <time>2016-07-15T10:33:34Z</time>
      </trkpt>
      <trkpt lat="46.23747" lon="6.73304">
        <ele>1809</ele>
        <time>2016-07-15T10:34:42Z</time>
      </trkpt>
      <trkpt lat="46.2373" lon="6.73292">
        <ele>1812</ele>
        <time>2016-07-15T10:35:06Z</time>
      </trkpt>
      <trkpt lat="46.23723" lon="6.73282">
        <ele>1815</ele>
        <time>2016-07-15T10:35:15Z</time>
      </trkpt>
      <trkpt lat="46.23715" lon="6.73276">
        <ele>1815</ele>
        <time>2016-07-15T10:35:27Z</time>
      </trkpt>
      <trkpt lat="46.23711" lon="6.73264">
        <ele>1817</ele>
        <time>2016-07-15T10:35:38Z</time>
      </trkpt>
      <trkpt lat="46.23703" lon="6.73257">
        <ele>1817</ele>
        <time>2016-07-15T10:35:49Z</time>
      </trkpt>
      <trkpt lat="46.23684" lon="6.73243">
        <ele>1821</ele>
        <time>2016-07-15T10:36:27Z</time>
      </trkpt>
      <trkpt lat="46.23675" lon="6.73237">
        <ele>1824</ele>
        <time>2016-07-15T10:36:43Z</time>
      </trkpt>
      <trkpt lat="46.2367" lon="6.73223">
        <ele>1828</ele>
        <time>2016-07-15T10:37:24Z</time>
      </trkpt>
      <trkpt lat="46.23672" lon="6.73214">
        <ele>1830</ele>
        <time>2016-07-15T10:37:40Z</time>
      </trkpt>
      <trkpt lat="46.2368" lon="6.73205">
        <ele>1834</ele>
        <time>2016-07-15T10:38:39Z</time>
      </trkpt>
      <trkpt lat="46.23698" lon="6.73198">
        <ele>1839</ele>
        <time>2016-07-15T10:39:14Z</time>
      </trkpt>
      <trkpt lat="46.23717" lon="6.73196">
        <ele>1846</ele>
        <time>2016-07-15T10:39:48Z</time>
      </trkpt>
      <trkpt lat="46.23726" lon="6.73197">
        <ele>1849</ele>
        <time>2016-07-15T10:40:08Z</time>
      </trkpt>
      <trkpt lat="46.23734" lon="6.73194">
        <ele>1850</ele>
        <time>2016-07-15T10:40:52Z</time>
      </trkpt>
      <trkpt lat="46.23752" lon="6.73188">
        <ele>1853</ele>
        <time>2016-07-15T10:41:15Z</time>
      </trkpt>
      <trkpt lat="46.23761" lon="6.73183">
        <ele>1856</ele>
        <time>2016-07-15T10:41:32Z</time>
      </trkpt>
      <trkpt lat="46.23766" lon="6.73182">
        <ele>1859</ele>
        <time>2016-07-15T10:42:13Z</time>
      </trkpt>
      <trkpt lat="46.23772" lon="6.73185">
        <ele>1864</ele>
        <time>2016-07-15T10:42:59Z</time>
      </trkpt>
      <trkpt lat="46.23782" lon="6.73178">
        <ele>1866</ele>
        <time>2016-07-15T10:46:19Z</time>
      </trkpt>
      <trkpt lat="46.23789" lon="6.73173">
        <ele>1868</ele>
        <time>2016-07-15T10:46:32Z</time>
      </trkpt>
      <trkpt lat="46.23793" lon="6.73173">
        <ele>1870</ele>
        <time>2016-07-15T10:46:41Z</time>
      </trkpt>
      <trkpt lat="46.23798" lon="6.73176">
        <ele>1872</ele>
        <time>2016-07-15T10:46:48Z</time>
      </trkpt>
      <trkpt lat="46.23801" lon="6.73171">
        <ele>1874</ele>
        <time>2016-07-15T10:47:43Z</time>
      </trkpt>
      <trkpt lat="46.23798" lon="6.73166">
        <ele>1874</ele>
        <time>2016-07-15T10:47:49Z</time>
      </trkpt>
      <trkpt lat="46.23794" lon="6.73154">
        <ele>1880</ele>
        <time>2016-07-15T10:48:06Z</time>
      </trkpt>
      <trkpt lat="46.23786" lon="6.73145">
        <ele>1881</ele>
        <time>2016-07-15T10:48:16Z</time>
      </trkpt>
      <trkpt lat="46.23782" lon="6.7314">
        <ele>1881</ele>
        <time>2016-07-15T10:48:23Z</time>
      </trkpt>
      <trkpt lat="46.23777" lon="6.73133">
        <ele>1882</ele>
        <time>2016-07-15T10:48:35Z</time>
      </trkpt>
      <trkpt lat="46.23771" lon="6.73124">
        <ele>1884</ele>
        <time>2016-07-15T10:48:47Z</time>
      </trkpt>
      <trkpt lat="46.23766" lon="6.73121">
        <ele>1884</ele>
        <time>2016-07-15T10:48:53Z</time>
      </trkpt>
      <trkpt lat="46.23763" lon="6.73116">
        <ele>1885</ele>
        <time>2016-07-15T10:49:00Z</time>
      </trkpt>
      <trkpt lat="46.23759" lon="6.73114">
        <ele>1887</ele>
        <time>2016-07-15T10:49:07Z</time>
      </trkpt>
      <trkpt lat="46.23729" lon="6.73084">
        <ele>1893</ele>
        <time>2016-07-15T10:49:45Z</time>
      </trkpt>
      <trkpt lat="46.2373" lon="6.73078">
        <ele>1893</ele>
        <time>2016-07-15T10:49:48Z</time>
      </trkpt>
      <trkpt lat="46.23732" lon="6.73076">
        <ele>1898</ele>
        <time>2016-07-15T10:50:07Z</time>
      </trkpt>
      <trkpt lat="46.23739" lon="6.73076">
        <ele>1899</ele>
        <time>2016-07-15T10:50:39Z</time>
      </trkpt>
      <trkpt lat="46.23737" lon="6.73074">
        <ele>1902</ele>
        <time>2016-07-15T10:57:03Z</time>
      </trkpt>
      <trkpt lat="46.23733" lon="6.7306">
        <ele>1902</ele>
        <time>2016-07-15T10:57:14Z</time>
      </trkpt>
      <trkpt lat="46.23728" lon="6.73057">
        <ele>1902</ele>
        <time>2016-07-15T10:57:18Z</time>
      </trkpt>
      <trkpt lat="46.23715" lon="6.73045">
        <ele>1899</ele>
        <time>2016-07-15T10:57:32Z</time>
      </trkpt>
      <trkpt lat="46.23713" lon="6.73038">
        <ele>1898</ele>
        <time>2016-07-15T10:57:38Z</time>
      </trkpt>
      <trkpt lat="46.23709" lon="6.73034">
        <ele>1897</ele>
        <time>2016-07-15T10:57:43Z</time>
      </trkpt>
      <trkpt lat="46.23704" lon="6.73019">
        <ele>1892</ele>
        <time>2016-07-15T10:58:06Z</time>
      </trkpt>
      <trkpt lat="46.23686" lon="6.73008">
        <ele>1889</ele>
        <time>2016-07-15T10:58:25Z</time>
      </trkpt>
      <trkpt lat="46.23683" lon="6.73009">
        <ele>1889</ele>
        <time>2016-07-15T10:58:46Z</time>
      </trkpt>
      <trkpt lat="46.23675" lon="6.73009">
        <ele>1888</ele>
        <time>2016-07-15T10:59:04Z</time>
      </trkpt>
      <trkpt lat="46.23672" lon="6.73005">
        <ele>1887</ele>
        <time>2016-07-15T10:59:42Z</time>
      </trkpt>
      <trkpt lat="46.23669" lon="6.72994">
        <ele>1883</ele>
        <time>2016-07-15T11:00:16Z</time>
      </trkpt>
      <trkpt lat="46.23664" lon="6.7299">
        <ele>1882</ele>
        <time>2016-07-15T11:00:23Z</time>
      </trkpt>
      <trkpt lat="46.23655" lon="6.72986">
        <ele>1882</ele>
        <time>2016-07-15T11:00:32Z</time>
      </trkpt>
      <trkpt lat="46.23644" lon="6.72962">
        <ele>1878</ele>
        <time>2016-07-15T11:00:51Z</time>
      </trkpt>
      <trkpt lat="46.23643" lon="6.72954">
        <ele>1878</ele>
        <time>2016-07-15T11:00:56Z</time>
      </trkpt>
      <trkpt lat="46.23638" lon="6.72948">
        <ele>1877</ele>
        <time>2016-07-15T11:01:08Z</time>
      </trkpt>
      <trkpt lat="46.23637" lon="6.72941">
        <ele>1877</ele>
        <time>2016-07-15T11:01:15Z</time>
      </trkpt>
      <trkpt lat="46.23632" lon="6.72919">
        <ele>1873</ele>
        <time>2016-07-15T11:01:30Z</time>
      </trkpt>
      <trkpt lat="46.23623" lon="6.72912">
        <ele>1871</ele>
        <time>2016-07-15T11:01:46Z</time>
      </trkpt>
      <trkpt lat="46.2362" lon="6.72908">
        <ele>1872</ele>
        <time>2016-07-15T11:01:52Z</time>
      </trkpt>
      <trkpt lat="46.23613" lon="6.72894">
        <ele>1874</ele>
        <time>2016-07-15T11:02:27Z</time>
      </trkpt>
      <trkpt lat="46.2361" lon="6.72888">
        <ele>1875</ele>
        <time>2016-07-15T11:02:46Z</time>
      </trkpt>
      <trkpt lat="46.23606" lon="6.72876">
        <ele>1876</ele>
        <time>2016-07-15T11:02:56Z</time>
      </trkpt>
      <trkpt lat="46.236" lon="6.7285">
        <ele>1874</ele>
        <time>2016-07-15T11:03:16Z</time>
      </trkpt>
      <trkpt lat="46.23598" lon="6.7282">
        <ele>1876</ele>
        <time>2016-07-15T11:03:45Z</time>
      </trkpt>
      <trkpt lat="46.23597" lon="6.72806">
        <ele>1874</ele>
        <time>2016-07-15T11:03:55Z</time>
      </trkpt>
      <trkpt lat="46.23591" lon="6.72788">
        <ele>1874</ele>
        <time>2016-07-15T11:04:08Z</time>
      </trkpt>
      <trkpt lat="46.23585" lon="6.72748">
        <ele>1875</ele>
        <time>2016-07-15T11:04:47Z</time>
      </trkpt>
      <trkpt lat="46.23585" lon="6.72738">
        <ele>1874</ele>
        <time>2016-07-15T11:04:59Z</time>
      </trkpt>
      <trkpt lat="46.23586" lon="6.72721">
        <ele>1874</ele>
        <time>2016-07-15T11:05:10Z</time>
      </trkpt>
      <trkpt lat="46.23585" lon="6.72715">
        <ele>1875</ele>
        <time>2016-07-15T11:05:15Z</time>
      </trkpt>
      <trkpt lat="46.23587" lon="6.72694">
        <ele>1876</ele>
        <time>2016-07-15T11:05:40Z</time>
      </trkpt>
      <trkpt lat="46.23588" lon="6.72687">
        <ele>1876</ele>
        <time>2016-07-15T11:05:53Z</time>
      </trkpt>
      <trkpt lat="46.23588" lon="6.7268">
        <ele>1876</ele>
        <time>2016-07-15T11:05:58Z</time>
      </trkpt>
      <trkpt lat="46.23586" lon="6.72673">
        <ele>1877</ele>
        <time>2016-07-15T11:06:03Z</time>
      </trkpt>
      <trkpt lat="46.23586" lon="6.72666">
        <ele>1878</ele>
        <time>2016-07-15T11:06:10Z</time>
      </trkpt>
      <trkpt lat="46.23587" lon="6.72658">
        <ele>1878</ele>
        <time>2016-07-15T11:06:16Z</time>
      </trkpt>
      <trkpt lat="46.23587" lon="6.7265">
        <ele>1878</ele>
        <time>2016-07-15T11:06:22Z</time>
      </trkpt>
      <trkpt lat="46.23585" lon="6.72636">
        <ele>1878</ele>
        <time>2016-07-15T11:06:32Z</time>
      </trkpt>
      <trkpt lat="46.23588" lon="6.72608">
        <ele>1879</ele>
        <time>2016-07-15T11:06:53Z</time>
      </trkpt>
      <trkpt lat="46.23587" lon="6.72602">
        <ele>1878</ele>
        <time>2016-07-15T11:06:58Z</time>
      </trkpt>
      <trkpt lat="46.23583" lon="6.72594">
        <ele>1878</ele>
        <time>2016-07-15T11:07:09Z</time>
      </trkpt>
      <trkpt lat="46.23581" lon="6.72588">
        <ele>1879</ele>
        <time>2016-07-15T11:07:14Z</time>
      </trkpt>
      <trkpt lat="46.23582" lon="6.72581">
        <ele>1879</ele>
        <time>2016-07-15T11:07:21Z</time>
      </trkpt>
      <trkpt lat="46.23582" lon="6.72574">
        <ele>1879</ele>
        <time>2016-07-15T11:08:16Z</time>
      </trkpt>
      <trkpt lat="46.23582" lon="6.72568">
        <ele>1879</ele>
        <time>2016-07-15T11:08:27Z</time>
      </trkpt>
      <trkpt lat="46.23583" lon="6.72561">
        <ele>1880</ele>
        <time>2016-07-15T11:08:36Z</time>
      </trkpt>
      <trkpt lat="46.23586" lon="6.72553">
        <ele>1880</ele>
        <time>2016-07-15T11:08:41Z</time>
      </trkpt>
      <trkpt lat="46.23587" lon="6.72542">
        <ele>1880</ele>
        <time>2016-07-15T11:09:04Z</time>
      </trkpt>
      <trkpt lat="46.2359" lon="6.72539">
        <ele>1880</ele>
        <time>2016-07-15T11:09:15Z</time>
      </trkpt>
      <trkpt lat="46.23593" lon="6.72532">
        <ele>1882</ele>
        <time>2016-07-15T11:09:36Z</time>
      </trkpt>
      <trkpt lat="46.23597" lon="6.72527">
        <ele>1883</ele>
        <time>2016-07-15T11:09:53Z</time>
      </trkpt>
      <trkpt lat="46.23609" lon="6.72503">
        <ele>1882</ele>
        <time>2016-07-15T11:10:15Z</time>
      </trkpt>
      <trkpt lat="46.2361" lon="6.72488">
        <ele>1883</ele>
        <time>2016-07-15T11:10:27Z</time>
      </trkpt>
      <trkpt lat="46.23612" lon="6.72482">
        <ele>1883</ele>
        <time>2016-07-15T11:10:34Z</time>
      </trkpt>
      <trkpt lat="46.23616" lon="6.72477">
        <ele>1882</ele>
        <time>2016-07-15T11:10:40Z</time>
      </trkpt>
      <trkpt lat="46.23618" lon="6.7247">
        <ele>1883</ele>
        <time>2016-07-15T11:10:49Z</time>
      </trkpt>
      <trkpt lat="46.23621" lon="6.72466">
        <ele>1883</ele>
        <time>2016-07-15T11:10:54Z</time>
      </trkpt>
      <trkpt lat="46.23623" lon="6.72458">
        <ele>1883</ele>
        <time>2016-07-15T11:11:02Z</time>
      </trkpt>
      <trkpt lat="46.23623" lon="6.72451">
        <ele>1883</ele>
        <time>2016-07-15T11:11:08Z</time>
      </trkpt>
      <trkpt lat="46.23625" lon="6.72446">
        <ele>1883</ele>
        <time>2016-07-15T11:11:16Z</time>
      </trkpt>
      <trkpt lat="46.2363" lon="6.72443">
        <ele>1885</ele>
        <time>2016-07-15T11:11:25Z</time>
      </trkpt>
      <trkpt lat="46.23633" lon="6.72438">
        <ele>1885</ele>
        <time>2016-07-15T11:11:31Z</time>
      </trkpt>
      <trkpt lat="46.23635" lon="6.72434">
        <ele>1886</ele>
        <time>2016-07-15T11:11:40Z</time>
      </trkpt>
      <trkpt lat="46.2364" lon="6.72429">
        <ele>1887</ele>
        <time>2016-07-15T11:11:53Z</time>
      </trkpt>
      <trkpt lat="46.2364" lon="6.72424">
        <ele>1888</ele>
        <time>2016-07-15T11:12:02Z</time>
      </trkpt>
      <trkpt lat="46.23645" lon="6.7242">
        <ele>1889</ele>
        <time>2016-07-15T11:12:15Z</time>
      </trkpt>
      <trkpt lat="46.23661" lon="6.72397">
        <ele>1895</ele>
        <time>2016-07-15T11:12:50Z</time>
      </trkpt>
      <trkpt lat="46.23664" lon="6.7239">
        <ele>1895</ele>
        <time>2016-07-15T11:13:05Z</time>
      </trkpt>
      <trkpt lat="46.2367" lon="6.72379">
        <ele>1896</ele>
        <time>2016-07-15T11:13:21Z</time>
      </trkpt>
      <trkpt lat="46.23679" lon="6.72365">
        <ele>1902</ele>
        <time>2016-07-15T11:13:49Z</time>
      </trkpt>
      <trkpt lat="46.23678" lon="6.72356">
        <ele>1902</ele>
        <time>2016-07-15T11:14:03Z</time>
      </trkpt>
      <trkpt lat="46.2368" lon="6.7235">
        <ele>1905</ele>
        <time>2016-07-15T11:14:17Z</time>
      </trkpt>
      <trkpt lat="46.23683" lon="6.7235">
        <ele>1907</ele>
        <time>2016-07-15T11:14:35Z</time>
      </trkpt>
      <trkpt lat="46.23687" lon="6.72349">
        <ele>1912</ele>
        <time>2016-07-15T11:15:13Z</time>
      </trkpt>
      <trkpt lat="46.23694" lon="6.72348">
        <ele>1914</ele>
        <time>2016-07-15T11:15:28Z</time>
      </trkpt>
      <trkpt lat="46.23696" lon="6.72351">
        <ele>1916</ele>
        <time>2016-07-15T11:15:39Z</time>
      </trkpt>
      <trkpt lat="46.23703" lon="6.7235">
        <ele>1918</ele>
        <time>2016-07-15T11:16:28Z</time>
      </trkpt>
      <trkpt lat="46.23711" lon="6.72344">
        <ele>1921</ele>
        <time>2016-07-15T11:16:44Z</time>
      </trkpt>
      <trkpt lat="46.23712" lon="6.72349">
        <ele>1922</ele>
        <time>2016-07-15T11:18:32Z</time>
      </trkpt>
      <trkpt lat="46.23715" lon="6.7235">
        <ele>1921</ele>
        <time>2016-07-15T11:18:44Z</time>
      </trkpt>
      <trkpt lat="46.23707" lon="6.72345">
        <ele>1917</ele>
        <time>2016-07-15T11:20:13Z</time>
      </trkpt>
      <trkpt lat="46.237" lon="6.72347">
        <ele>1917</ele>
        <time>2016-07-15T11:20:21Z</time>
      </trkpt>
      <trkpt lat="46.23696" lon="6.72349">
        <ele>1917</ele>
        <time>2016-07-15T11:20:31Z</time>
      </trkpt>
      <trkpt lat="46.23694" lon="6.72351">
        <ele>1918</ele>
        <time>2016-07-15T11:20:43Z</time>
      </trkpt>
      <trkpt lat="46.23691" lon="6.72353">
        <ele>1918</ele>
        <time>2016-07-15T11:20:54Z</time>
      </trkpt>
      <trkpt lat="46.23688" lon="6.72351">
        <ele>1918</ele>
        <time>2016-07-15T11:21:05Z</time>
      </trkpt>
      <trkpt lat="46.23683" lon="6.72352">
        <ele>1917</ele>
        <time>2016-07-15T11:21:16Z</time>
      </trkpt>
      <trkpt lat="46.23681" lon="6.72364">
        <ele>1916</ele>
        <time>2016-07-15T11:22:03Z</time>
      </trkpt>
      <trkpt lat="46.23664" lon="6.72395">
        <ele>1903</ele>
        <time>2016-07-15T11:22:38Z</time>
      </trkpt>
      <trkpt lat="46.23646" lon="6.72416">
        <ele>1898</ele>
        <time>2016-07-15T11:23:57Z</time>
      </trkpt>
      <trkpt lat="46.23648" lon="6.72429">
        <ele>1898</ele>
        <time>2016-07-15T11:24:07Z</time>
      </trkpt>
      <trkpt lat="46.23646" lon="6.72443">
        <ele>1890</ele>
        <time>2016-07-15T11:24:15Z</time>
      </trkpt>
      <trkpt lat="46.2364" lon="6.72452">
        <ele>1888</ele>
        <time>2016-07-15T11:24:22Z</time>
      </trkpt>
      <trkpt lat="46.23638" lon="6.72466">
        <ele>1883</ele>
        <time>2016-07-15T11:24:31Z</time>
      </trkpt>
      <trkpt lat="46.23642" lon="6.72478">
        <ele>1881</ele>
        <time>2016-07-15T11:24:45Z</time>
      </trkpt>
      <trkpt lat="46.23644" lon="6.7248">
        <ele>1877</ele>
        <time>2016-07-15T11:25:40Z</time>
      </trkpt>
      <trkpt lat="46.23643" lon="6.72486">
        <ele>1875</ele>
        <time>2016-07-15T11:25:44Z</time>
      </trkpt>
      <trkpt lat="46.23647" lon="6.72536">
        <ele>1866</ele>
        <time>2016-07-15T11:26:16Z</time>
      </trkpt>
      <trkpt lat="46.23646" lon="6.72549">
        <ele>1864</ele>
        <time>2016-07-15T11:26:27Z</time>
      </trkpt>
      <trkpt lat="46.23652" lon="6.72568">
        <ele>1861</ele>
        <time>2016-07-15T11:26:43Z</time>
      </trkpt>
      <trkpt lat="46.23657" lon="6.72571">
        <ele>1853</ele>
        <time>2016-07-15T11:27:31Z</time>
      </trkpt>
      <trkpt lat="46.23662" lon="6.72573">
        <ele>1852</ele>
        <time>2016-07-15T11:27:40Z</time>
      </trkpt>
      <trkpt lat="46.23665" lon="6.72579">
        <ele>1845</ele>
        <time>2016-07-15T11:27:46Z</time>
      </trkpt>
      <trkpt lat="46.23669" lon="6.72581">
        <ele>1844</ele>
        <time>2016-07-15T11:27:50Z</time>
      </trkpt>
      <trkpt lat="46.23675" lon="6.72579">
        <ele>1841</ele>
        <time>2016-07-15T11:27:54Z</time>
      </trkpt>
      <trkpt lat="46.23679" lon="6.72584">
        <ele>1840</ele>
        <time>2016-07-15T11:27:59Z</time>
      </trkpt>
      <trkpt lat="46.23684" lon="6.72586">
        <ele>1839</ele>
        <time>2016-07-15T11:28:03Z</time>
      </trkpt>
      <trkpt lat="46.2369" lon="6.72585">
        <ele>1838</ele>
        <time>2016-07-15T11:28:06Z</time>
      </trkpt>
      <trkpt lat="46.23694" lon="6.72588">
        <ele>1837</ele>
        <time>2016-07-15T11:28:10Z</time>
      </trkpt>
      <trkpt lat="46.23698" lon="6.72594">
        <ele>1836</ele>
        <time>2016-07-15T11:28:14Z</time>
      </trkpt>
      <trkpt lat="46.23711" lon="6.72605">
        <ele>1833</ele>
        <time>2016-07-15T11:28:29Z</time>
      </trkpt>
      <trkpt lat="46.23711" lon="6.72608">
        <ele>1832</ele>
        <time>2016-07-15T11:28:35Z</time>
      </trkpt>
      <trkpt lat="46.23722" lon="6.72611">
        <ele>1828</ele>
        <time>2016-07-15T11:29:06Z</time>
      </trkpt>
      <trkpt lat="46.23725" lon="6.72606">
        <ele>1827</ele>
        <time>2016-07-15T11:29:26Z</time>
      </trkpt>
      <trkpt lat="46.23731" lon="6.72617">
        <ele>1823</ele>
        <time>2016-07-15T11:29:43Z</time>
      </trkpt>
      <trkpt lat="46.23737" lon="6.72621">
        <ele>1822</ele>
        <time>2016-07-15T11:29:47Z</time>
      </trkpt>
      <trkpt lat="46.23743" lon="6.72609">
        <ele>1820</ele>
        <time>2016-07-15T11:30:00Z</time>
      </trkpt>
      <trkpt lat="46.23753" lon="6.72617">
        <ele>1818</ele>
        <time>2016-07-15T11:30:12Z</time>
      </trkpt>
      <trkpt lat="46.23762" lon="6.72621">
        <ele>1817</ele>
        <time>2016-07-15T11:30:19Z</time>
      </trkpt>
      <trkpt lat="46.23771" lon="6.7262">
        <ele>1813</ele>
        <time>2016-07-15T11:30:39Z</time>
      </trkpt>
      <trkpt lat="46.2378" lon="6.7262">
        <ele>1813</ele>
        <time>2016-07-15T11:30:53Z</time>
      </trkpt>
      <trkpt lat="46.23799" lon="6.72618">
        <ele>1812</ele>
        <time>2016-07-15T11:31:10Z</time>
      </trkpt>
      <trkpt lat="46.23809" lon="6.72613">
        <ele>1810</ele>
        <time>2016-07-15T11:31:18Z</time>
      </trkpt>
      <trkpt lat="46.23815" lon="6.72613">
        <ele>1810</ele>
        <time>2016-07-15T11:31:22Z</time>
      </trkpt>
      <trkpt lat="46.2382" lon="6.7261">
        <ele>1809</ele>
        <time>2016-07-15T11:31:27Z</time>
      </trkpt>
      <trkpt lat="46.23825" lon="6.7261">
        <ele>1809</ele>
        <time>2016-07-15T11:31:31Z</time>
      </trkpt>
      <trkpt lat="46.2384" lon="6.72609">
        <ele>1806</ele>
        <time>2016-07-15T11:31:46Z</time>
      </trkpt>
      <trkpt lat="46.23874" lon="6.72618">
        <ele>1800</ele>
        <time>2016-07-15T11:32:18Z</time>
      </trkpt>
      <trkpt lat="46.23885" lon="6.72616">
        <ele>1797</ele>
        <time>2016-07-15T11:33:16Z</time>
      </trkpt>
      <trkpt lat="46.239" lon="6.72606">
        <ele>1795</ele>
        <time>2016-07-15T11:33:28Z</time>
      </trkpt>
      <trkpt lat="46.23909" lon="6.72601">
        <ele>1795</ele>
        <time>2016-07-15T11:33:37Z</time>
      </trkpt>
      <trkpt lat="46.23914" lon="6.72603">
        <ele>1795</ele>
        <time>2016-07-15T11:33:42Z</time>
      </trkpt>
      <trkpt lat="46.23948" lon="6.72611">
        <ele>1791</ele>
        <time>2016-07-15T11:34:13Z</time>
      </trkpt>
      <trkpt lat="46.23952" lon="6.72614">
        <ele>1791</ele>
        <time>2016-07-15T11:34:17Z</time>
      </trkpt>
      <trkpt lat="46.23957" lon="6.72615">
        <ele>1791</ele>
        <time>2016-07-15T11:34:21Z</time>
      </trkpt>
      <trkpt lat="46.23959" lon="6.72614">
        <ele>1790</ele>
        <time>2016-07-15T11:34:27Z</time>
      </trkpt>
      <trkpt lat="46.23965" lon="6.72608">
        <ele>1789</ele>
        <time>2016-07-15T11:35:14Z</time>
      </trkpt>
      <trkpt lat="46.2397" lon="6.72608">
        <ele>1787</ele>
        <time>2016-07-15T11:35:19Z</time>
      </trkpt>
      <trkpt lat="46.23974" lon="6.72605">
        <ele>1787</ele>
        <time>2016-07-15T11:35:22Z</time>
      </trkpt>
      <trkpt lat="46.2398" lon="6.72608">
        <ele>1786</ele>
        <time>2016-07-15T11:35:31Z</time>
      </trkpt>
      <trkpt lat="46.23984" lon="6.72612">
        <ele>1786</ele>
        <time>2016-07-15T11:35:36Z</time>
      </trkpt>
      <trkpt lat="46.23995" lon="6.72614">
        <ele>1784</ele>
        <time>2016-07-15T11:35:50Z</time>
      </trkpt>
      <trkpt lat="46.24008" lon="6.72621">
        <ele>1783</ele>
        <time>2016-07-15T11:36:07Z</time>
      </trkpt>
      <trkpt lat="46.24013" lon="6.72624">
        <ele>1782</ele>
        <time>2016-07-15T11:36:11Z</time>
      </trkpt>
      <trkpt lat="46.24024" lon="6.72622">
        <ele>1779</ele>
        <time>2016-07-15T11:36:19Z</time>
      </trkpt>
      <trkpt lat="46.24027" lon="6.72628">
        <ele>1778</ele>
        <time>2016-07-15T11:36:24Z</time>
      </trkpt>
      <trkpt lat="46.24031" lon="6.72631">
        <ele>1776</ele>
        <time>2016-07-15T11:36:28Z</time>
      </trkpt>
      <trkpt lat="46.24051" lon="6.72628">
        <ele>1773</ele>
        <time>2016-07-15T11:36:55Z</time>
      </trkpt>
      <trkpt lat="46.24055" lon="6.72627">
        <ele>1772</ele>
        <time>2016-07-15T11:37:54Z</time>
      </trkpt>
      <trkpt lat="46.2406" lon="6.7263">
        <ele>1771</ele>
        <time>2016-07-15T11:38:02Z</time>
      </trkpt>
      <trkpt lat="46.24068" lon="6.72649">
        <ele>1768</ele>
        <time>2016-07-15T11:38:15Z</time>
      </trkpt>
      <trkpt lat="46.24071" lon="6.72647">
        <ele>1768</ele>
        <time>2016-07-15T11:38:32Z</time>
      </trkpt>
      <trkpt lat="46.24073" lon="6.72651">
        <ele>1769</ele>
        <time>2016-07-15T11:38:48Z</time>
      </trkpt>
      <trkpt lat="46.24077" lon="6.72652">
        <ele>1769</ele>
        <time>2016-07-15T11:38:57Z</time>
      </trkpt>
      <trkpt lat="46.24094" lon="6.72664">
        <ele>1770</ele>
        <time>2016-07-15T11:39:18Z</time>
      </trkpt>
      <trkpt lat="46.24097" lon="6.7267">
        <ele>1769</ele>
        <time>2016-07-15T11:39:24Z</time>
      </trkpt>
      <trkpt lat="46.24101" lon="6.72673">
        <ele>1769</ele>
        <time>2016-07-15T11:39:29Z</time>
      </trkpt>
      <trkpt lat="46.24105" lon="6.72676">
        <ele>1769</ele>
        <time>2016-07-15T11:39:33Z</time>
      </trkpt>
      <trkpt lat="46.2412" lon="6.72681">
        <ele>1767</ele>
        <time>2016-07-15T11:39:46Z</time>
      </trkpt>
      <trkpt lat="46.24133" lon="6.72691">
        <ele>1767</ele>
        <time>2016-07-15T11:40:01Z</time>
      </trkpt>
      <trkpt lat="46.24142" lon="6.72697">
        <ele>1767</ele>
        <time>2016-07-15T11:40:11Z</time>
      </trkpt>
      <trkpt lat="46.24145" lon="6.72702">
        <ele>1768</ele>
        <time>2016-07-15T11:40:16Z</time>
      </trkpt>
      <trkpt lat="46.24146" lon="6.7271">
        <ele>1767</ele>
        <time>2016-07-15T11:40:21Z</time>
      </trkpt>
      <trkpt lat="46.24149" lon="6.72716">
        <ele>1767</ele>
        <time>2016-07-15T11:40:26Z</time>
      </trkpt>
      <trkpt lat="46.24157" lon="6.72725">
        <ele>1767</ele>
        <time>2016-07-15T11:40:37Z</time>
      </trkpt>
      <trkpt lat="46.24163" lon="6.72759">
        <ele>1768</ele>
        <time>2016-07-15T11:41:03Z</time>
      </trkpt>
      <trkpt lat="46.24167" lon="6.72763">
        <ele>1769</ele>
        <time>2016-07-15T11:41:10Z</time>
      </trkpt>
      <trkpt lat="46.2417" lon="6.7276">
        <ele>1770</ele>
        <time>2016-07-15T11:41:30Z</time>
      </trkpt>
      <trkpt lat="46.24174" lon="6.72762">
        <ele>1771</ele>
        <time>2016-07-15T11:41:59Z</time>
      </trkpt>
      <trkpt lat="46.2418" lon="6.72765">
        <ele>1772</ele>
        <time>2016-07-15T11:42:25Z</time>
      </trkpt>
      <trkpt lat="46.24184" lon="6.72762">
        <ele>1773</ele>
        <time>2016-07-15T11:42:30Z</time>
      </trkpt>
      <trkpt lat="46.2419" lon="6.72765">
        <ele>1774</ele>
        <time>2016-07-15T11:42:45Z</time>
      </trkpt>
      <trkpt lat="46.24195" lon="6.72765">
        <ele>1774</ele>
        <time>2016-07-15T11:42:50Z</time>
      </trkpt>
      <trkpt lat="46.242" lon="6.72759">
        <ele>1774</ele>
        <time>2016-07-15T11:43:04Z</time>
      </trkpt>
      <trkpt lat="46.24213" lon="6.72751">
        <ele>1772</ele>
        <time>2016-07-15T11:43:19Z</time>
      </trkpt>
      <trkpt lat="46.24227" lon="6.72759">
        <ele>1771</ele>
        <time>2016-07-15T11:43:34Z</time>
      </trkpt>
      <trkpt lat="46.24231" lon="6.72754">
        <ele>1771</ele>
        <time>2016-07-15T11:43:40Z</time>
      </trkpt>
      <trkpt lat="46.24235" lon="6.7275">
        <ele>1771</ele>
        <time>2016-07-15T11:43:46Z</time>
      </trkpt>
      <trkpt lat="46.24239" lon="6.72752">
        <ele>1772</ele>
        <time>2016-07-15T11:43:51Z</time>
      </trkpt>
      <trkpt lat="46.24243" lon="6.72758">
        <ele>1772</ele>
        <time>2016-07-15T11:43:56Z</time>
      </trkpt>
      <trkpt lat="46.24246" lon="6.72763">
        <ele>1772</ele>
        <time>2016-07-15T11:44:00Z</time>
      </trkpt>
      <trkpt lat="46.2425" lon="6.72766">
        <ele>1771</ele>
        <time>2016-07-15T11:44:04Z</time>
      </trkpt>
      <trkpt lat="46.24255" lon="6.72768">
        <ele>1771</ele>
        <time>2016-07-15T11:44:09Z</time>
      </trkpt>
      <trkpt lat="46.2426" lon="6.7277">
        <ele>1771</ele>
        <time>2016-07-15T11:44:14Z</time>
      </trkpt>
      <trkpt lat="46.24259" lon="6.72777">
        <ele>1770</ele>
        <time>2016-07-15T11:44:19Z</time>
      </trkpt>
      <trkpt lat="46.2426" lon="6.72792">
        <ele>1770</ele>
        <time>2016-07-15T11:44:29Z</time>
      </trkpt>
      <trkpt lat="46.24263" lon="6.72812">
        <ele>1770</ele>
        <time>2016-07-15T11:44:44Z</time>
      </trkpt>
      <trkpt lat="46.24265" lon="6.72813">
        <ele>1768</ele>
        <time>2016-07-15T11:46:09Z</time>
      </trkpt>
      <trkpt lat="46.24265" lon="6.7282">
        <ele>1768</ele>
        <time>2016-07-15T11:46:34Z</time>
      </trkpt>
      <trkpt lat="46.24273" lon="6.72875">
        <ele>1761</ele>
        <time>2016-07-15T11:47:09Z</time>
      </trkpt>
      <trkpt lat="46.24272" lon="6.72888">
        <ele>1760</ele>
        <time>2016-07-15T11:47:19Z</time>
      </trkpt>
      <trkpt lat="46.24274" lon="6.72891">
        <ele>1757</ele>
        <time>2016-07-15T11:47:30Z</time>
      </trkpt>
      <trkpt lat="46.24276" lon="6.72906">
        <ele>1753</ele>
        <time>2016-07-15T11:47:42Z</time>
      </trkpt>
      <trkpt lat="46.24272" lon="6.72919">
        <ele>1749</ele>
        <time>2016-07-15T11:47:52Z</time>
      </trkpt>
      <trkpt lat="46.24262" lon="6.72925">
        <ele>1743</ele>
        <time>2016-07-15T11:48:05Z</time>
      </trkpt>
      <trkpt lat="46.2426" lon="6.72941">
        <ele>1740</ele>
        <time>2016-07-15T11:48:14Z</time>
      </trkpt>
      <trkpt lat="46.24257" lon="6.72945">
        <ele>1740</ele>
        <time>2016-07-15T11:48:19Z</time>
      </trkpt>
      <trkpt lat="46.24254" lon="6.72959">
        <ele>1738</ele>
        <time>2016-07-15T11:48:27Z</time>
      </trkpt>
      <trkpt lat="46.24241" lon="6.72978">
        <ele>1735</ele>
        <time>2016-07-15T11:48:44Z</time>
      </trkpt>
      <trkpt lat="46.24236" lon="6.72984">
        <ele>1732</ele>
        <time>2016-07-15T11:48:58Z</time>
      </trkpt>
      <trkpt lat="46.24236" lon="6.72998">
        <ele>1731</ele>
        <time>2016-07-15T11:49:46Z</time>
      </trkpt>
      <trkpt lat="46.24234" lon="6.73011">
        <ele>1730</ele>
        <time>2016-07-15T11:49:56Z</time>
      </trkpt>
      <trkpt lat="46.24238" lon="6.73024">
        <ele>1729</ele>
        <time>2016-07-15T11:50:06Z</time>
      </trkpt>
      <trkpt lat="46.24247" lon="6.73032">
        <ele>1725</ele>
        <time>2016-07-15T11:50:20Z</time>
      </trkpt>
      <trkpt lat="46.2425" lon="6.73045">
        <ele>1723</ele>
        <time>2016-07-15T11:50:30Z</time>
      </trkpt>
      <trkpt lat="46.24257" lon="6.73049">
        <ele>1719</ele>
        <time>2016-07-15T11:50:51Z</time>
      </trkpt>
      <trkpt lat="46.24257" lon="6.73055">
        <ele>1716</ele>
        <time>2016-07-15T11:50:58Z</time>
      </trkpt>
      <trkpt lat="46.24253" lon="6.73059">
        <ele>1715</ele>
        <time>2016-07-15T11:51:08Z</time>
      </trkpt>
      <trkpt lat="46.24252" lon="6.73065">
        <ele>1713</ele>
        <time>2016-07-15T11:51:23Z</time>
      </trkpt>
      <trkpt lat="46.24254" lon="6.73067">
        <ele>1712</ele>
        <time>2016-07-15T11:51:30Z</time>
      </trkpt>
      <trkpt lat="46.24248" lon="6.73072">
        <ele>1708</ele>
        <time>2016-07-15T11:52:13Z</time>
      </trkpt>
      <trkpt lat="46.24252" lon="6.73065">
        <ele>1706</ele>
        <time>2016-07-15T12:22:06Z</time>
      </trkpt>
      <trkpt lat="46.24246" lon="6.73078">
        <ele>1706</ele>
        <time>2016-07-15T12:22:46Z</time>
      </trkpt>
      <trkpt lat="46.24244" lon="6.73087">
        <ele>1705</ele>
        <time>2016-07-15T12:23:01Z</time>
      </trkpt>
      <trkpt lat="46.24252" lon="6.73095">
        <ele>1704</ele>
        <time>2016-07-15T12:23:15Z</time>
      </trkpt>
      <trkpt lat="46.24253" lon="6.73099">
        <ele>1703</ele>
        <time>2016-07-15T12:24:10Z</time>
      </trkpt>
      <trkpt lat="46.24263" lon="6.73099">
        <ele>1702</ele>
        <time>2016-07-15T12:24:17Z</time>
      </trkpt>
      <trkpt lat="46.24278" lon="6.73115">
        <ele>1700</ele>
        <time>2016-07-15T12:24:36Z</time>
      </trkpt>
      <trkpt lat="46.24277" lon="6.73101">
        <ele>1700</ele>
        <time>2016-07-15T12:24:56Z</time>
      </trkpt>
      <trkpt lat="46.2428" lon="6.73096">
        <ele>1698</ele>
        <time>2016-07-15T12:25:06Z</time>
      </trkpt>
      <trkpt lat="46.24284" lon="6.73099">
        <ele>1696</ele>
        <time>2016-07-15T12:25:12Z</time>
      </trkpt>
      <trkpt lat="46.24288" lon="6.73094">
        <ele>1694</ele>
        <time>2016-07-15T12:25:16Z</time>
      </trkpt>
      <trkpt lat="46.24292" lon="6.73097">
        <ele>1693</ele>
        <time>2016-07-15T12:25:47Z</time>
      </trkpt>
      <trkpt lat="46.24296" lon="6.73103">
        <ele>1692</ele>
        <time>2016-07-15T12:26:17Z</time>
      </trkpt>
      <trkpt lat="46.24299" lon="6.73098">
        <ele>1692</ele>
        <time>2016-07-15T12:26:21Z</time>
      </trkpt>
      <trkpt lat="46.24306" lon="6.73102">
        <ele>1690</ele>
        <time>2016-07-15T12:26:33Z</time>
      </trkpt>
      <trkpt lat="46.24309" lon="6.73101">
        <ele>1688</ele>
        <time>2016-07-15T12:26:39Z</time>
      </trkpt>
      <trkpt lat="46.24312" lon="6.73101">
        <ele>1687</ele>
        <time>2016-07-15T12:26:47Z</time>
      </trkpt>
      <trkpt lat="46.2431" lon="6.73095">
        <ele>1686</ele>
        <time>2016-07-15T12:26:57Z</time>
      </trkpt>
      <trkpt lat="46.24314" lon="6.7309">
        <ele>1682</ele>
        <time>2016-07-15T12:27:06Z</time>
      </trkpt>
      <trkpt lat="46.24317" lon="6.73086">
        <ele>1677</ele>
        <time>2016-07-15T12:27:45Z</time>
      </trkpt>
      <trkpt lat="46.24322" lon="6.73082">
        <ele>1672</ele>
        <time>2016-07-15T12:28:02Z</time>
      </trkpt>
      <trkpt lat="46.24328" lon="6.73055">
        <ele>1662</ele>
        <time>2016-07-15T12:28:33Z</time>
      </trkpt>
      <trkpt lat="46.24329" lon="6.73051">
        <ele>1661</ele>
        <time>2016-07-15T12:28:40Z</time>
      </trkpt>
      <trkpt lat="46.24334" lon="6.73041">
        <ele>1659</ele>
        <time>2016-07-15T12:30:40Z</time>
      </trkpt>
      <trkpt lat="46.24338" lon="6.73053">
        <ele>1658</ele>
        <time>2016-07-15T12:30:53Z</time>
      </trkpt>
      <trkpt lat="46.24353" lon="6.73073">
        <ele>1650</ele>
        <time>2016-07-15T12:31:45Z</time>
      </trkpt>
      <trkpt lat="46.24363" lon="6.7307">
        <ele>1648</ele>
        <time>2016-07-15T12:32:27Z</time>
      </trkpt>
      <trkpt lat="46.24365" lon="6.73053">
        <ele>1644</ele>
        <time>2016-07-15T12:32:57Z</time>
      </trkpt>
      <trkpt lat="46.24373" lon="6.73046">
        <ele>1641</ele>
        <time>2016-07-15T12:33:09Z</time>
      </trkpt>
      <trkpt lat="46.24377" lon="6.7305">
        <ele>1639</ele>
        <time>2016-07-15T12:33:20Z</time>
      </trkpt>
      <trkpt lat="46.24382" lon="6.73053">
        <ele>1638</ele>
        <time>2016-07-15T12:34:02Z</time>
      </trkpt>
      <trkpt lat="46.2439" lon="6.73063">
        <ele>1634</ele>
        <time>2016-07-15T12:34:28Z</time>
      </trkpt>
      <trkpt lat="46.24397" lon="6.73054">
        <ele>1632</ele>
        <time>2016-07-15T12:34:53Z</time>
      </trkpt>
      <trkpt lat="46.24394" lon="6.7306">
        <ele>1628</ele>
        <time>2016-07-15T12:35:45Z</time>
      </trkpt>
      <trkpt lat="46.24395" lon="6.73074">
        <ele>1627</ele>
        <time>2016-07-15T12:36:04Z</time>
      </trkpt>
      <trkpt lat="46.24402" lon="6.73089">
        <ele>1622</ele>
        <time>2016-07-15T12:36:58Z</time>
      </trkpt>
      <trkpt lat="46.24412" lon="6.73091">
        <ele>1620</ele>
        <time>2016-07-15T12:37:08Z</time>
      </trkpt>
      <trkpt lat="46.2442" lon="6.73099">
        <ele>1617</ele>
        <time>2016-07-15T12:37:23Z</time>
      </trkpt>
      <trkpt lat="46.24435" lon="6.73105">
        <ele>1616</ele>
        <time>2016-07-15T12:38:06Z</time>
      </trkpt>
      <trkpt lat="46.24444" lon="6.73109">
        <ele>1615</ele>
        <time>2016-07-15T12:38:18Z</time>
      </trkpt>
      <trkpt lat="46.24454" lon="6.73104">
        <ele>1610</ele>
        <time>2016-07-15T12:38:52Z</time>
      </trkpt>
      <trkpt lat="46.24456" lon="6.73093">
        <ele>1607</ele>
        <time>2016-07-15T12:39:37Z</time>
      </trkpt>
      <trkpt lat="46.24449" lon="6.73077">
        <ele>1596</ele>
        <time>2016-07-15T12:40:38Z</time>
      </trkpt>
      <trkpt lat="46.24452" lon="6.73072">
        <ele>1595</ele>
        <time>2016-07-15T12:40:49Z</time>
      </trkpt>
      <trkpt lat="46.24459" lon="6.73072">
        <ele>1591</ele>
        <time>2016-07-15T12:41:22Z</time>
      </trkpt>
      <trkpt lat="46.24479" lon="6.73066">
        <ele>1585</ele>
        <time>2016-07-15T12:42:15Z</time>
      </trkpt>
      <trkpt lat="46.2449" lon="6.73074">
        <ele>1578</ele>
        <time>2016-07-15T12:42:42Z</time>
      </trkpt>
      <trkpt lat="46.24492" lon="6.73081">
        <ele>1575</ele>
        <time>2016-07-15T12:43:10Z</time>
      </trkpt>
      <trkpt lat="46.24501" lon="6.7309">
        <ele>1572</ele>
        <time>2016-07-15T12:43:29Z</time>
      </trkpt>
      <trkpt lat="46.24508" lon="6.73097">
        <ele>1568</ele>
        <time>2016-07-15T12:43:48Z</time>
      </trkpt>
      <trkpt lat="46.24517" lon="6.73096">
        <ele>1565</ele>
        <time>2016-07-15T12:44:11Z</time>
      </trkpt>
      <trkpt lat="46.24525" lon="6.73103">
        <ele>1562</ele>
        <time>2016-07-15T12:44:29Z</time>
      </trkpt>
      <trkpt lat="46.2453" lon="6.73092">
        <ele>1560</ele>
        <time>2016-07-15T12:44:42Z</time>
      </trkpt>
      <trkpt lat="46.24527" lon="6.73085">
        <ele>1560</ele>
        <time>2016-07-15T12:44:55Z</time>
      </trkpt>
      <trkpt lat="46.2453" lon="6.73077">
        <ele>1556</ele>
        <time>2016-07-15T12:45:20Z</time>
      </trkpt>
      <trkpt lat="46.24538" lon="6.73083">
        <ele>1553</ele>
        <time>2016-07-15T12:45:37Z</time>
      </trkpt>
      <trkpt lat="46.24544" lon="6.73073">
        <ele>1551</ele>
        <time>2016-07-15T12:45:51Z</time>
      </trkpt>
      <trkpt lat="46.24549" lon="6.73072">
        <ele>1546</ele>
        <time>2016-07-15T12:46:04Z</time>
      </trkpt>
      <trkpt lat="46.24555" lon="6.73066">
        <ele>1544</ele>
        <time>2016-07-15T12:46:32Z</time>
      </trkpt>
      <trkpt lat="46.24559" lon="6.73077">
        <ele>1541</ele>
        <time>2016-07-15T12:47:23Z</time>
      </trkpt>
      <trkpt lat="46.24562" lon="6.73091">
        <ele>1536</ele>
        <time>2016-07-15T12:47:44Z</time>
      </trkpt>
      <trkpt lat="46.24571" lon="6.73091">
        <ele>1534</ele>
        <time>2016-07-15T12:47:53Z</time>
      </trkpt>
      <trkpt lat="46.24573" lon="6.73101">
        <ele>1526</ele>
        <time>2016-07-15T12:51:19Z</time>
      </trkpt>
      <trkpt lat="46.2458" lon="6.73104">
        <ele>1522</ele>
        <time>2016-07-15T12:52:07Z</time>
      </trkpt>
      <trkpt lat="46.24591" lon="6.73112">
        <ele>1519</ele>
        <time>2016-07-15T12:52:43Z</time>
      </trkpt>
      <trkpt lat="46.24603" lon="6.73123">
        <ele>1515</ele>
        <time>2016-07-15T12:53:15Z</time>
      </trkpt>
      <trkpt lat="46.24609" lon="6.73117">
        <ele>1513</ele>
        <time>2016-07-15T12:54:13Z</time>
      </trkpt>
      <trkpt lat="46.24617" lon="6.73118">
        <ele>1506</ele>
        <time>2016-07-15T12:55:02Z</time>
      </trkpt>
      <trkpt lat="46.24626" lon="6.73118">
        <ele>1505</ele>
        <time>2016-07-15T12:55:14Z</time>
      </trkpt>
      <trkpt lat="46.24632" lon="6.73116">
        <ele>1504</ele>
        <time>2016-07-15T12:55:27Z</time>
      </trkpt>
      <trkpt lat="46.24641" lon="6.73117">
        <ele>1502</ele>
        <time>2016-07-15T12:56:08Z</time>
      </trkpt>
      <trkpt lat="46.24651" lon="6.73117">
        <ele>1501</ele>
        <time>2016-07-15T12:56:21Z</time>
      </trkpt>
      <trkpt lat="46.24657" lon="6.73113">
        <ele>1499</ele>
        <time>2016-07-15T12:56:37Z</time>
      </trkpt>
      <trkpt lat="46.2466" lon="6.73101">
        <ele>1491</ele>
        <time>2016-07-15T12:57:33Z</time>
      </trkpt>
      <trkpt lat="46.24677" lon="6.73093">
        <ele>1480</ele>
        <time>2016-07-15T12:58:12Z</time>
      </trkpt>
      <trkpt lat="46.24681" lon="6.73094">
        <ele>1466</ele>
        <time>2016-07-15T13:00:35Z</time>
      </trkpt>
      <trkpt lat="46.24687" lon="6.73082">
        <ele>1465</ele>
        <time>2016-07-15T13:00:58Z</time>
      </trkpt>
      <trkpt lat="46.2469" lon="6.73069">
        <ele>1464</ele>
        <time>2016-07-15T13:01:10Z</time>
      </trkpt>
      <trkpt lat="46.24695" lon="6.73065">
        <ele>1458</ele>
        <time>2016-07-15T13:01:42Z</time>
      </trkpt>
      <trkpt lat="46.24704" lon="6.73071">
        <ele>1452</ele>
        <time>2016-07-15T13:02:55Z</time>
      </trkpt>
      <trkpt lat="46.24706" lon="6.73059">
        <ele>1443</ele>
        <time>2016-07-15T13:03:28Z</time>
      </trkpt>
      <trkpt lat="46.247" lon="6.73052">
        <ele>1440</ele>
        <time>2016-07-15T13:04:04Z</time>
      </trkpt>
      <trkpt lat="46.24705" lon="6.73039">
        <ele>1435</ele>
        <time>2016-07-15T13:04:38Z</time>
      </trkpt>
      <trkpt lat="46.24716" lon="6.73033">
        <ele>1433</ele>
        <time>2016-07-15T13:05:10Z</time>
      </trkpt>
      <trkpt lat="46.24719" lon="6.73021">
        <ele>1430</ele>
        <time>2016-07-15T13:05:38Z</time>
      </trkpt>
      <trkpt lat="46.24733" lon="6.73034">
        <ele>1425</ele>
        <time>2016-07-15T13:07:44Z</time>
      </trkpt>
      <trkpt lat="46.2474" lon="6.73042">
        <ele>1418</ele>
        <time>2016-07-15T13:08:01Z</time>
      </trkpt>
      <trkpt lat="46.24754" lon="6.73047">
        <ele>1415</ele>
        <time>2016-07-15T13:08:32Z</time>
      </trkpt>
      <trkpt lat="46.24762" lon="6.73044">
        <ele>1415</ele>
        <time>2016-07-15T13:08:50Z</time>
      </trkpt>
      <trkpt lat="46.24771" lon="6.73047">
        <ele>1414</ele>
        <time>2016-07-15T13:09:02Z</time>
      </trkpt>
      <trkpt lat="46.2478" lon="6.73045">
        <ele>1413</ele>
        <time>2016-07-15T13:09:19Z</time>
      </trkpt>
      <trkpt lat="46.24789" lon="6.73049">
        <ele>1412</ele>
        <time>2016-07-15T13:09:28Z</time>
      </trkpt>
      <trkpt lat="46.24798" lon="6.73054">
        <ele>1412</ele>
        <time>2016-07-15T13:09:37Z</time>
      </trkpt>
      <trkpt lat="46.24824" lon="6.73065">
        <ele>1415</ele>
        <time>2016-07-15T13:10:16Z</time>
      </trkpt>
      <trkpt lat="46.24834" lon="6.73065">
        <ele>1414</ele>
        <time>2016-07-15T13:10:29Z</time>
      </trkpt>
      <trkpt lat="46.24845" lon="6.73064">
        <ele>1415</ele>
        <time>2016-07-15T13:10:48Z</time>
      </trkpt>
      <trkpt lat="46.24854" lon="6.73062">
        <ele>1414</ele>
        <time>2016-07-15T13:10:58Z</time>
      </trkpt>
      <trkpt lat="46.24877" lon="6.73049">
        <ele>1409</ele>
        <time>2016-07-15T13:11:36Z</time>
      </trkpt>
      <trkpt lat="46.2489" lon="6.73038">
        <ele>1407</ele>
        <time>2016-07-15T13:12:25Z</time>
      </trkpt>
      <trkpt lat="46.24896" lon="6.73036">
        <ele>1404</ele>
        <time>2016-07-15T13:12:39Z</time>
      </trkpt>
      <trkpt lat="46.24905" lon="6.73039">
        <ele>1403</ele>
        <time>2016-07-15T13:13:19Z</time>
      </trkpt>
      <trkpt lat="46.24933" lon="6.73042">
        <ele>1407</ele>
        <time>2016-07-15T13:13:48Z</time>
      </trkpt>
      <trkpt lat="46.24946" lon="6.73041">
        <ele>1406</ele>
        <time>2016-07-15T13:14:17Z</time>
      </trkpt>
      <trkpt lat="46.24953" lon="6.73048">
        <ele>1406</ele>
        <time>2016-07-15T13:14:25Z</time>
      </trkpt>
      <trkpt lat="46.24962" lon="6.73051">
        <ele>1407</ele>
        <time>2016-07-15T13:14:33Z</time>
      </trkpt>
      <trkpt lat="46.24968" lon="6.73041">
        <ele>1408</ele>
        <time>2016-07-15T13:14:42Z</time>
      </trkpt>
      <trkpt lat="46.24976" lon="6.73033">
        <ele>1406</ele>
        <time>2016-07-15T13:14:53Z</time>
      </trkpt>
      <trkpt lat="46.24983" lon="6.73037">
        <ele>1406</ele>
        <time>2016-07-15T13:17:54Z</time>
      </trkpt>
      <trkpt lat="46.24988" lon="6.73041">
        <ele>1406</ele>
        <time>2016-07-15T13:18:23Z</time>
      </trkpt>
      <trkpt lat="46.24994" lon="6.73033">
        <ele>1406</ele>
        <time>2016-07-15T13:18:48Z</time>
      </trkpt>
      <trkpt lat="46.24996" lon="6.7303">
        <ele>1404</ele>
        <time>2016-07-15T13:19:14Z</time>
      </trkpt>
      <trkpt lat="46.25003" lon="6.73018">
        <ele>1403</ele>
        <time>2016-07-15T13:19:24Z</time>
      </trkpt>
      <trkpt lat="46.25012" lon="6.73019">
        <ele>1403</ele>
        <time>2016-07-15T13:19:35Z</time>
      </trkpt>
      <trkpt lat="46.25021" lon="6.73019">
        <ele>1404</ele>
        <time>2016-07-15T13:19:48Z</time>
      </trkpt>
      <trkpt lat="46.25037" lon="6.73004">
        <ele>1402</ele>
        <time>2016-07-15T13:20:10Z</time>
      </trkpt>
      <trkpt lat="46.2504" lon="6.72996">
        <ele>1399</ele>
        <time>2016-07-15T13:21:57Z</time>
      </trkpt>
      <trkpt lat="46.25051" lon="6.73001">
        <ele>1400</ele>
        <time>2016-07-15T13:24:13Z</time>
      </trkpt>
      <trkpt lat="46.25064" lon="6.73001">
        <ele>1401</ele>
        <time>2016-07-15T13:24:32Z</time>
      </trkpt>
      <trkpt lat="46.25073" lon="6.73">
        <ele>1401</ele>
        <time>2016-07-15T13:24:42Z</time>
      </trkpt>
      <trkpt lat="46.25082" lon="6.72998">
        <ele>1400</ele>
        <time>2016-07-15T13:24:51Z</time>
      </trkpt>
      <trkpt lat="46.2509" lon="6.7299">
        <ele>1399</ele>
        <time>2016-07-15T13:24:58Z</time>
      </trkpt>
      <trkpt lat="46.25098" lon="6.72986">
        <ele>1399</ele>
        <time>2016-07-15T13:25:08Z</time>
      </trkpt>
      <trkpt lat="46.25104" lon="6.72989">
        <ele>1399</ele>
        <time>2016-07-15T13:25:22Z</time>
      </trkpt>
      <trkpt lat="46.25113" lon="6.72991">
        <ele>1399</ele>
        <time>2016-07-15T13:25:34Z</time>
      </trkpt>
      <trkpt lat="46.25122" lon="6.7299">
        <ele>1401</ele>
        <time>2016-07-15T13:25:46Z</time>
      </trkpt>
      <trkpt lat="46.25131" lon="6.72991">
        <ele>1401</ele>
        <time>2016-07-15T13:25:56Z</time>
      </trkpt>
      <trkpt lat="46.2514" lon="6.72978">
        <ele>1403</ele>
        <time>2016-07-15T13:26:12Z</time>
      </trkpt>
      <trkpt lat="46.25142" lon="6.72965">
        <ele>1404</ele>
        <time>2016-07-15T13:26:22Z</time>
      </trkpt>
      <trkpt lat="46.2515" lon="6.72959">
        <ele>1405</ele>
        <time>2016-07-15T13:26:29Z</time>
      </trkpt>
      <trkpt lat="46.25157" lon="6.72949">
        <ele>1405</ele>
        <time>2016-07-15T13:26:43Z</time>
      </trkpt>
      <trkpt lat="46.25167" lon="6.72947">
        <ele>1405</ele>
        <time>2016-07-15T13:26:50Z</time>
      </trkpt>
      <trkpt lat="46.25178" lon="6.72947">
        <ele>1405</ele>
        <time>2016-07-15T13:26:57Z</time>
      </trkpt>
      <trkpt lat="46.25189" lon="6.72936">
        <ele>1405</ele>
        <time>2016-07-15T13:27:20Z</time>
      </trkpt>
      <trkpt lat="46.25214" lon="6.7292">
        <ele>1408</ele>
        <time>2016-07-15T13:27:46Z</time>
      </trkpt>
      <trkpt lat="46.25222" lon="6.72911">
        <ele>1407</ele>
        <time>2016-07-15T13:27:53Z</time>
      </trkpt>
      <trkpt lat="46.25249" lon="6.729">
        <ele>1404</ele>
        <time>2016-07-15T13:28:21Z</time>
      </trkpt>
      <trkpt lat="46.25258" lon="6.72896">
        <ele>1404</ele>
        <time>2016-07-15T13:28:27Z</time>
      </trkpt>
      <trkpt lat="46.25268" lon="6.72895">
        <ele>1402</ele>
        <time>2016-07-15T13:28:43Z</time>
      </trkpt>
      <trkpt lat="46.25275" lon="6.72904">
        <ele>1401</ele>
        <time>2016-07-15T13:28:56Z</time>
      </trkpt>
      <trkpt lat="46.25314" lon="6.72912">
        <ele>1393</ele>
        <time>2016-07-15T13:29:30Z</time>
      </trkpt>
      <trkpt lat="46.25323" lon="6.72914">
        <ele>1391</ele>
        <time>2016-07-15T13:29:38Z</time>
      </trkpt>
      <trkpt lat="46.25349" lon="6.72902">
        <ele>1387</ele>
        <time>2016-07-15T13:30:05Z</time>
      </trkpt>
      <trkpt lat="46.25361" lon="6.72902">
        <ele>1387</ele>
        <time>2016-07-15T13:30:18Z</time>
      </trkpt>
      <trkpt lat="46.2537" lon="6.72909">
        <ele>1386</ele>
        <time>2016-07-15T13:30:27Z</time>
      </trkpt>
      <trkpt lat="46.25372" lon="6.72923">
        <ele>1386</ele>
        <time>2016-07-15T13:30:37Z</time>
      </trkpt>
      <trkpt lat="46.25382" lon="6.72923">
        <ele>1386</ele>
        <time>2016-07-15T13:30:43Z</time>
      </trkpt>
      <trkpt lat="46.25404" lon="6.72949">
        <ele>1384</ele>
        <time>2016-07-15T13:31:20Z</time>
      </trkpt>
      <trkpt lat="46.25411" lon="6.72955">
        <ele>1384</ele>
        <time>2016-07-15T13:31:30Z</time>
      </trkpt>
      <trkpt lat="46.25416" lon="6.72965">
        <ele>1383</ele>
        <time>2016-07-15T13:31:48Z</time>
      </trkpt>
      <trkpt lat="46.25426" lon="6.72962">
        <ele>1383</ele>
        <time>2016-07-15T13:31:55Z</time>
      </trkpt>
      <trkpt lat="46.25432" lon="6.72972">
        <ele>1383</ele>
        <time>2016-07-15T13:32:12Z</time>
      </trkpt>
      <trkpt lat="46.25431" lon="6.72982">
        <ele>1375</ele>
        <time>2016-07-15T13:34:51Z</time>
      </trkpt>
      <trkpt lat="46.25462" lon="6.73005">
        <ele>1375</ele>
        <time>2016-07-15T13:35:26Z</time>
      </trkpt>
      <trkpt lat="46.25501" lon="6.73048">
        <ele>1376</ele>
        <time>2016-07-15T13:36:04Z</time>
      </trkpt>
      <trkpt lat="46.25523" lon="6.73072">
        <ele>1377</ele>
        <time>2016-07-15T13:36:28Z</time>
      </trkpt>
      <trkpt lat="46.25532" lon="6.73069">
        <ele>1377</ele>
        <time>2016-07-15T13:36:33Z</time>
      </trkpt>
      <trkpt lat="46.25548" lon="6.73101">
        <ele>1377</ele>
        <time>2016-07-15T13:36:58Z</time>
      </trkpt>
      <trkpt lat="46.25559" lon="6.73097">
        <ele>1379</ele>
        <time>2016-07-15T13:37:06Z</time>
      </trkpt>
      <trkpt lat="46.25562" lon="6.73111">
        <ele>1380</ele>
        <time>2016-07-15T13:37:14Z</time>
      </trkpt>
      <trkpt lat="46.2554" lon="6.73119">
        <ele>1381</ele>
        <time>2016-07-15T13:37:20Z</time>
      </trkpt>
      <trkpt lat="46.25513" lon="6.73152">
        <ele>1372</ele>
        <time>2016-07-15T13:37:54Z</time>
      </trkpt>
      <trkpt lat="46.25499" lon="6.73162">
        <ele>1370</ele>
        <time>2016-07-15T13:38:06Z</time>
      </trkpt>
      <trkpt lat="46.25474" lon="6.73189">
        <ele>1368</ele>
        <time>2016-07-15T13:38:33Z</time>
      </trkpt>
      <trkpt lat="46.25468" lon="6.73201">
        <ele>1367</ele>
        <time>2016-07-15T13:38:47Z</time>
      </trkpt>
      <trkpt lat="46.25468" lon="6.73215">
        <ele>1367</ele>
        <time>2016-07-15T13:38:58Z</time>
      </trkpt>
      <trkpt lat="46.25464" lon="6.73227">
        <ele>1367</ele>
        <time>2016-07-15T13:39:06Z</time>
      </trkpt>
      <trkpt lat="46.25468" lon="6.73231">
        <ele>1368</ele>
        <time>2016-07-15T13:39:10Z</time>
      </trkpt>
      <trkpt lat="46.25472" lon="6.73243">
        <ele>1367</ele>
        <time>2016-07-15T13:39:20Z</time>
      </trkpt>
      <trkpt lat="46.25491" lon="6.73275">
        <ele>1364</ele>
        <time>2016-07-15T13:40:02Z</time>
      </trkpt>
      <trkpt lat="46.25493" lon="6.73287">
        <ele>1363</ele>
        <time>2016-07-15T13:41:18Z</time>
      </trkpt>
      <trkpt lat="46.2549" lon="6.73321">
        <ele>1364</ele>
        <time>2016-07-15T13:41:39Z</time>
      </trkpt>
      <trkpt lat="46.25487" lon="6.73334">
        <ele>1367</ele>
        <time>2016-07-15T13:41:54Z</time>
      </trkpt>
      <trkpt lat="46.25481" lon="6.73346">
        <ele>1368</ele>
        <time>2016-07-15T13:41:59Z</time>
      </trkpt>
      <trkpt lat="46.25479" lon="6.73359">
        <ele>1370</ele>
        <time>2016-07-15T13:42:08Z</time>
      </trkpt>
      <trkpt lat="46.25473" lon="6.73367">
        <ele>1370</ele>
        <time>2016-07-15T13:42:10Z</time>
      </trkpt>
      <trkpt lat="46.25471" lon="6.73373">
        <ele>1371</ele>
        <time>2016-07-15T13:42:18Z</time>
      </trkpt>
      <trkpt lat="46.2548" lon="6.73376">
        <ele>1372</ele>
        <time>2016-07-15T13:42:27Z</time>
      </trkpt>
      <trkpt lat="46.25482" lon="6.73389">
        <ele>1372</ele>
        <time>2016-07-15T13:42:37Z</time>
      </trkpt>
      <trkpt lat="46.25473" lon="6.73396">
        <ele>1372</ele>
        <time>2016-07-15T13:42:46Z</time>
      </trkpt>
      <trkpt lat="46.25466" lon="6.73395">
        <ele>1372</ele>
        <time>2016-07-15T13:42:48Z</time>
      </trkpt>
      <trkpt lat="46.25468" lon="6.73408">
        <ele>1373</ele>
        <time>2016-07-15T13:42:54Z</time>
      </trkpt>
      <trkpt lat="46.25477" lon="6.73424">
        <ele>1373</ele>
        <time>2016-07-15T13:43:09Z</time>
      </trkpt>
      <trkpt lat="46.2547" lon="6.73434">
        <ele>1374</ele>
        <time>2016-07-15T13:43:17Z</time>
      </trkpt>
      <trkpt lat="46.25474" lon="6.73448">
        <ele>1375</ele>
        <time>2016-07-15T13:43:22Z</time>
      </trkpt>
      <trkpt lat="46.25473" lon="6.73463">
        <ele>1374</ele>
        <time>2016-07-15T13:43:33Z</time>
      </trkpt>
      <trkpt lat="46.25463" lon="6.73469">
        <ele>1373</ele>
        <time>2016-07-15T13:43:41Z</time>
      </trkpt>
      <trkpt lat="46.25468" lon="6.73478">
        <ele>1374</ele>
        <time>2016-07-15T13:43:44Z</time>
      </trkpt>
      <trkpt lat="46.25475" lon="6.73489">
        <ele>1374</ele>
        <time>2016-07-15T13:43:49Z</time>
      </trkpt>
      <trkpt lat="46.25472" lon="6.73502">
        <ele>1373</ele>
        <time>2016-07-15T13:44:03Z</time>
      </trkpt>
      <trkpt lat="46.25477" lon="6.73516">
        <ele>1373</ele>
        <time>2016-07-15T13:44:10Z</time>
      </trkpt>
      <trkpt lat="46.25482" lon="6.73529">
        <ele>1372</ele>
        <time>2016-07-15T13:44:22Z</time>
      </trkpt>
      <trkpt lat="46.25475" lon="6.73585">
        <ele>1371</ele>
        <time>2016-07-15T13:44:46Z</time>
      </trkpt>
      <trkpt lat="46.2548" lon="6.73596">
        <ele>1370</ele>
        <time>2016-07-15T13:44:58Z</time>
      </trkpt>
      <trkpt lat="46.25486" lon="6.73605">
        <ele>1369</ele>
        <time>2016-07-15T13:45:17Z</time>
      </trkpt>
      <trkpt lat="46.25484" lon="6.73619">
        <ele>1369</ele>
        <time>2016-07-15T13:45:26Z</time>
      </trkpt>
      <trkpt lat="46.25475" lon="6.73639">
        <ele>1368</ele>
        <time>2016-07-15T13:45:35Z</time>
      </trkpt>
      <trkpt lat="46.25483" lon="6.73651">
        <ele>1367</ele>
        <time>2016-07-15T13:45:44Z</time>
      </trkpt>
      <trkpt lat="46.2549" lon="6.73658">
        <ele>1367</ele>
        <time>2016-07-15T13:45:53Z</time>
      </trkpt>
      <trkpt lat="46.2549" lon="6.73673">
        <ele>1366</ele>
        <time>2016-07-15T13:46:06Z</time>
      </trkpt>
      <trkpt lat="46.25498" lon="6.73681">
        <ele>1366</ele>
        <time>2016-07-15T13:46:13Z</time>
      </trkpt>
      <trkpt lat="46.25491" lon="6.73696">
        <ele>1364</ele>
        <time>2016-07-15T13:48:28Z</time>
      </trkpt>
      <trkpt lat="46.25487" lon="6.73704">
        <ele>1362</ele>
        <time>2016-07-15T13:48:50Z</time>
      </trkpt>
      <trkpt lat="46.25482" lon="6.73716">
        <ele>1357</ele>
        <time>2016-07-15T13:49:28Z</time>
      </trkpt>
      <trkpt lat="46.25485" lon="6.7373">
        <ele>1355</ele>
        <time>2016-07-15T13:49:34Z</time>
      </trkpt>
      <trkpt lat="46.25477" lon="6.73739">
        <ele>1354</ele>
        <time>2016-07-15T13:49:44Z</time>
      </trkpt>
      <trkpt lat="46.25468" lon="6.73778">
        <ele>1351</ele>
        <time>2016-07-15T13:50:05Z</time>
      </trkpt>
      <trkpt lat="46.25462" lon="6.73777">
        <ele>1351</ele>
        <time>2016-07-15T13:50:07Z</time>
      </trkpt>
      <trkpt lat="46.25457" lon="6.73788">
        <ele>1350</ele>
        <time>2016-07-15T13:50:17Z</time>
      </trkpt>
      <trkpt lat="46.25454" lon="6.73802">
        <ele>1350</ele>
        <time>2016-07-15T13:50:25Z</time>
      </trkpt>
      <trkpt lat="46.25444" lon="6.73805">
        <ele>1350</ele>
        <time>2016-07-15T13:50:33Z</time>
      </trkpt>
      <trkpt lat="46.25444" lon="6.73819">
        <ele>1350</ele>
        <time>2016-07-15T13:50:40Z</time>
      </trkpt>
      <trkpt lat="46.25456" lon="6.73841">
        <ele>1345</ele>
        <time>2016-07-15T13:51:09Z</time>
      </trkpt>
      <trkpt lat="46.25444" lon="6.73846">
        <ele>1344</ele>
        <time>2016-07-15T13:51:13Z</time>
      </trkpt>
      <trkpt lat="46.25438" lon="6.73857">
        <ele>1343</ele>
        <time>2016-07-15T13:51:19Z</time>
      </trkpt>
      <trkpt lat="46.25437" lon="6.73871">
        <ele>1343</ele>
        <time>2016-07-15T13:51:24Z</time>
      </trkpt>
      <trkpt lat="46.25424" lon="6.73906">
        <ele>1335</ele>
        <time>2016-07-15T13:51:56Z</time>
      </trkpt>
      <trkpt lat="46.25424" lon="6.73919">
        <ele>1334</ele>
        <time>2016-07-15T13:52:08Z</time>
      </trkpt>
      <trkpt lat="46.25428" lon="6.7396">
        <ele>1325</ele>
        <time>2016-07-15T13:52:41Z</time>
      </trkpt>
      <trkpt lat="46.2543" lon="6.73966">
        <ele>1324</ele>
        <time>2016-07-15T13:52:43Z</time>
      </trkpt>
      <trkpt lat="46.25435" lon="6.73973">
        <ele>1322</ele>
        <time>2016-07-15T13:52:59Z</time>
      </trkpt>
      <trkpt lat="46.2543" lon="6.73984">
        <ele>1318</ele>
        <time>2016-07-15T13:53:28Z</time>
      </trkpt>
      <trkpt lat="46.2543" lon="6.73996">
        <ele>1314</ele>
        <time>2016-07-15T13:54:13Z</time>
      </trkpt>
      <trkpt lat="46.25434" lon="6.74051">
        <ele>1309</ele>
        <time>2016-07-15T13:54:46Z</time>
      </trkpt>
      <trkpt lat="46.25432" lon="6.74065">
        <ele>1309</ele>
        <time>2016-07-15T13:54:56Z</time>
      </trkpt>
      <trkpt lat="46.25429" lon="6.74092">
        <ele>1308</ele>
        <time>2016-07-15T13:55:13Z</time>
      </trkpt>
      <trkpt lat="46.25421" lon="6.74141">
        <ele>1298</ele>
        <time>2016-07-15T13:55:44Z</time>
      </trkpt>
      <trkpt lat="46.25407" lon="6.74168">
        <ele>1293</ele>
        <time>2016-07-15T13:56:12Z</time>
      </trkpt>
      <trkpt lat="46.25404" lon="6.74173">
        <ele>1293</ele>
        <time>2016-07-15T13:56:17Z</time>
      </trkpt>
      <trkpt lat="46.25395" lon="6.74179">
        <ele>1293</ele>
        <time>2016-07-15T13:56:25Z</time>
      </trkpt>
      <trkpt lat="46.25388" lon="6.74189">
        <ele>1292</ele>
        <time>2016-07-15T13:56:32Z</time>
      </trkpt>
      <trkpt lat="46.25386" lon="6.74203">
        <ele>1292</ele>
        <time>2016-07-15T13:56:40Z</time>
      </trkpt>
      <trkpt lat="46.25373" lon="6.74254">
        <ele>1290</ele>
        <time>2016-07-15T13:57:17Z</time>
      </trkpt>
      <trkpt lat="46.25361" lon="6.74309">
        <ele>1279</ele>
        <time>2016-07-15T13:57:55Z</time>
      </trkpt>
      <trkpt lat="46.25345" lon="6.74326">
        <ele>1274</ele>
        <time>2016-07-15T13:58:12Z</time>
      </trkpt>
      <trkpt lat="46.25337" lon="6.74332">
        <ele>1273</ele>
        <time>2016-07-15T13:58:18Z</time>
      </trkpt>
      <trkpt lat="46.25331" lon="6.74359">
        <ele>1269</ele>
        <time>2016-07-15T13:58:36Z</time>
      </trkpt>
      <trkpt lat="46.25313" lon="6.74405">
        <ele>1261</ele>
        <time>2016-07-15T13:59:11Z</time>
      </trkpt>
      <trkpt lat="46.25307" lon="6.74417">
        <ele>1259</ele>
        <time>2016-07-15T13:59:20Z</time>
      </trkpt>
      <trkpt lat="46.25274" lon="6.74447">
        <ele>1255</ele>
        <time>2016-07-15T13:59:53Z</time>
      </trkpt>
      <trkpt lat="46.25245" lon="6.74479">
        <ele>1248</ele>
        <time>2016-07-15T14:00:28Z</time>
      </trkpt>
      <trkpt lat="46.25203" lon="6.74513">
        <ele>1245</ele>
        <time>2016-07-15T14:01:06Z</time>
      </trkpt>
      <trkpt lat="46.25173" lon="6.74549">
        <ele>1238</ele>
        <time>2016-07-15T14:01:44Z</time>
      </trkpt>
      <trkpt lat="46.25146" lon="6.74566">
        <ele>1233</ele>
        <time>2016-07-15T14:02:03Z</time>
      </trkpt>
      <trkpt lat="46.25141" lon="6.74568">
        <ele>1233</ele>
        <time>2016-07-15T14:02:05Z</time>
      </trkpt>
      <trkpt lat="46.25117" lon="6.74609">
        <ele>1228</ele>
        <time>2016-07-15T14:02:35Z</time>
      </trkpt>
      <trkpt lat="46.25113" lon="6.74622">
        <ele>1227</ele>
        <time>2016-07-15T14:02:43Z</time>
      </trkpt>
      <trkpt lat="46.25106" lon="6.7463">
        <ele>1225</ele>
        <time>2016-07-15T14:02:50Z</time>
      </trkpt>
      <trkpt lat="46.25067" lon="6.74668">
        <ele>1216</ele>
        <time>2016-07-15T14:03:29Z</time>
      </trkpt>
      <trkpt lat="46.25053" lon="6.74683">
        <ele>1215</ele>
        <time>2016-07-15T14:03:45Z</time>
      </trkpt>
      <trkpt lat="46.25026" lon="6.74698">
        <ele>1214</ele>
        <time>2016-07-15T14:04:07Z</time>
      </trkpt>
      <trkpt lat="46.25016" lon="6.74701">
        <ele>1214</ele>
        <time>2016-07-15T14:04:15Z</time>
      </trkpt>
      <trkpt lat="46.24991" lon="6.74719">
        <ele>1213</ele>
        <time>2016-07-15T14:04:36Z</time>
      </trkpt>
      <trkpt lat="46.24983" lon="6.74728">
        <ele>1212</ele>
        <time>2016-07-15T14:04:46Z</time>
      </trkpt>
      <trkpt lat="46.24975" lon="6.74734">
        <ele>1212</ele>
        <time>2016-07-15T14:04:53Z</time>
      </trkpt>
      <trkpt lat="46.24942" lon="6.74764">
        <ele>1208</ele>
        <time>2016-07-15T14:05:28Z</time>
      </trkpt>
      <trkpt lat="46.24909" lon="6.74792">
        <ele>1204</ele>
        <time>2016-07-15T14:06:00Z</time>
      </trkpt>
      <trkpt lat="46.24877" lon="6.74821">
        <ele>1200</ele>
        <time>2016-07-15T14:06:33Z</time>
      </trkpt>
      <trkpt lat="46.24846" lon="6.74852">
        <ele>1195</ele>
        <time>2016-07-15T14:07:05Z</time>
      </trkpt>
      <trkpt lat="46.24815" lon="6.74881">
        <ele>1189</ele>
        <time>2016-07-15T14:07:40Z</time>
      </trkpt>
      <trkpt lat="46.248" lon="6.74899">
        <ele>1188</ele>
        <time>2016-07-15T14:07:56Z</time>
      </trkpt>
      <trkpt lat="46.24774" lon="6.74924">
        <ele>1184</ele>
        <time>2016-07-15T14:08:34Z</time>
      </trkpt>
      <trkpt lat="46.24764" lon="6.74929">
        <ele>1181</ele>
        <time>2016-07-15T14:08:42Z</time>
      </trkpt>
      <trkpt lat="46.24737" lon="6.74943">
        <ele>1179</ele>
        <time>2016-07-15T14:09:04Z</time>
      </trkpt>
      <trkpt lat="46.24731" lon="6.74953">
        <ele>1180</ele>
        <time>2016-07-15T14:09:15Z</time>
      </trkpt>
      <trkpt lat="46.24727" lon="6.74965">
        <ele>1179</ele>
        <time>2016-07-15T14:09:27Z</time>
      </trkpt>
      <trkpt lat="46.24725" lon="6.74978">
        <ele>1178</ele>
        <time>2016-07-15T14:09:36Z</time>
      </trkpt>
      <trkpt lat="46.24723" lon="6.74984">
        <ele>1178</ele>
        <time>2016-07-15T14:09:39Z</time>
      </trkpt>
      <trkpt lat="46.24724" lon="6.74999">
        <ele>1177</ele>
        <time>2016-07-15T14:09:49Z</time>
      </trkpt>
      <trkpt lat="46.24721" lon="6.75041">
        <ele>1177</ele>
        <time>2016-07-15T14:10:13Z</time>
      </trkpt>
      <trkpt lat="46.2473" lon="6.75097">
        <ele>1178</ele>
        <time>2016-07-15T14:11:04Z</time>
      </trkpt>
      <trkpt lat="46.24731" lon="6.75126">
        <ele>1178</ele>
        <time>2016-07-15T14:11:26Z</time>
      </trkpt>
      <trkpt lat="46.24733" lon="6.75138">
        <ele>1177</ele>
        <time>2016-07-15T14:11:36Z</time>
      </trkpt>
      <trkpt lat="46.24742" lon="6.75178">
        <ele>1174</ele>
        <time>2016-07-15T14:12:08Z</time>
      </trkpt>
      <trkpt lat="46.24754" lon="6.75229">
        <ele>1174</ele>
        <time>2016-07-15T14:12:43Z</time>
      </trkpt>
      <trkpt lat="46.24772" lon="6.75253">
        <ele>1176</ele>
        <time>2016-07-15T14:15:28Z</time>
      </trkpt>
      <trkpt lat="46.24774" lon="6.75267">
        <ele>1174</ele>
        <time>2016-07-15T14:39:03Z</time>
      </trkpt>
      <trkpt lat="46.24775" lon="6.75281">
        <ele>1174</ele>
        <time>2016-07-15T14:39:16Z</time>
      </trkpt>
      <trkpt lat="46.24776" lon="6.75289">
        <ele>1176</ele>
        <time>2016-07-15T14:39:21Z</time>
      </trkpt>
      <trkpt lat="46.24793" lon="6.75333">
        <ele>1175</ele>
        <time>2016-07-15T14:40:00Z</time>
      </trkpt>
      <trkpt lat="46.248" lon="6.75341">
        <ele>1177</ele>
        <time>2016-07-15T14:40:11Z</time>
      </trkpt>
      <trkpt lat="46.24814" lon="6.75375">
        <ele>1178</ele>
        <time>2016-07-15T14:40:37Z</time>
      </trkpt>
      <trkpt lat="46.24822" lon="6.754">
        <ele>1177</ele>
        <time>2016-07-15T14:40:54Z</time>
      </trkpt>
      <trkpt lat="46.24828" lon="6.7541">
        <ele>1176</ele>
        <time>2016-07-15T14:41:03Z</time>
      </trkpt>
      <trkpt lat="46.24834" lon="6.75436">
        <ele>1177</ele>
        <time>2016-07-15T14:41:21Z</time>
      </trkpt>
      <trkpt lat="46.24842" lon="6.75442">
        <ele>1178</ele>
        <time>2016-07-15T14:41:30Z</time>
      </trkpt>
      <trkpt lat="46.24854" lon="6.75448">
        <ele>1179</ele>
        <time>2016-07-15T14:41:42Z</time>
      </trkpt>
      <trkpt lat="46.24854" lon="6.75455">
        <ele>1180</ele>
        <time>2016-07-15T14:41:50Z</time>
      </trkpt>
      <trkpt lat="46.24849" lon="6.75457">
        <ele>1180</ele>
        <time>2016-07-15T14:41:55Z</time>
      </trkpt>
      <trkpt lat="46.24827" lon="6.75478">
        <ele>1187</ele>
        <time>2016-07-15T14:42:29Z</time>
      </trkpt>
      <trkpt lat="46.24807" lon="6.75495">
        <ele>1191</ele>
        <time>2016-07-15T14:42:55Z</time>
      </trkpt>
      <trkpt lat="46.24808" lon="6.75509">
        <ele>1192</ele>
        <time>2016-07-15T14:43:05Z</time>
      </trkpt>
      <trkpt lat="46.24814" lon="6.7552">
        <ele>1192</ele>
        <time>2016-07-15T14:43:16Z</time>
      </trkpt>
    </trkseg>
  </trk>
</gpx>